Time,TemperatureF,DewpointF,PressureIn,WindDirection,WindDirectionDegrees,WindSpeedMPH,WindSpeedGustMPH,Humidity,HourlyPrecipIn,Conditions,Clouds,dailyrainin,SoftwareType,DateUTC
2013-09-08 00:01:00,57.9,44.1,29.83,West,263,1.0,1.0,60,0.00,,,0.00,Wunderground v.1.15,2013-09-08 04:01:00,
2013-09-08 00:02:00,57.9,43.2,29.84,West,263,0.0,1.0,58,0.00,,,0.00,Wunderground v.1.15,2013-09-08 04:02:00,
2013-09-08 00:03:00,58.0,43.7,29.83,West,263,0.0,1.0,59,0.00,,,0.00,Wunderground v.1.15,2013-09-08 04:03:00,
2013-09-08 00:08:00,58.0,44.2,29.83,West,263,0.0,1.0,60,0.00,,,0.00,Wunderground v.1.15,2013-09-08 04:08:00,
2013-09-08 00:09:00,58.0,43.7,29.83,West,263,0.0,1.0,59,0.00,,,0.00,Wunderground v.1.15,2013-09-08 04:09:00,
2013-09-08 00:10:00,57.9,44.1,29.83,West,263,0.0,0.0,60,0.00,,,0.00,Wunderground v.1.15,2013-09-08 04:10:00,
2013-09-08 00:12:00,57.9,44.5,29.84,West,263,0.0,0.0,61,0.00,,,0.00,Wunderground v.1.15,2013-09-08 04:12:00,
2013-09-08 00:14:00,57.8,44.0,29.83,West,263,0.0,0.0,60,0.00,,,0.00,Wunderground v.1.15,2013-09-08 04:14:00,
2013-09-08 00:15:00,57.8,43.6,29.84,West,263,0.0,0.0,59,0.00,,,0.00,Wunderground v.1.15,2013-09-08 04:15:00,
2013-09-08 00:17:00,57.8,43.1,29.83,South,171,0.0,0.0,58,0.00,,,0.00,Wunderground v.1.15,2013-09-08 04:17:00,
2013-09-08 00:18:00,57.8,44.4,29.83,South,171,0.0,0.0,61,0.00,,,0.00,Wunderground v.1.15,2013-09-08 04:18:00,
2013-09-08 00:21:00,57.8,44.4,29.84,South,171,0.0,0.0,61,0.00,,,0.00,Wunderground v.1.15,2013-09-08 04:21:00,
2013-09-08 00:22:00,57.8,44.0,29.84,South,171,0.0,0.0,60,0.00,,,0.00,Wunderground v.1.15,2013-09-08 04:22:00,
2013-09-08 00:24:00,57.8,44.0,29.84,North,355,0.0,0.0,60,0.00,,,0.00,Wunderground v.1.15,2013-09-08 04:24:00,
2013-09-08 00:26:00,57.8,44.0,29.83,SW,218,1.0,1.0,60,0.00,,,0.00,Wunderground v.1.15,2013-09-08 04:26:00,
2013-09-08 00:28:00,57.9,43.7,29.84,SSW,200,1.0,3.0,59,0.00,,,0.00,Wunderground v.1.15,2013-09-08 04:28:00,
2013-09-08 00:29:00,57.9,44.5,29.83,ESE,123,0.0,3.0,61,0.00,,,0.00,Wunderground v.1.15,2013-09-08 04:29:00,
2013-09-08 00:32:00,57.9,45.0,29.83,WSW,244,0.0,1.0,62,0.00,,,0.00,Wunderground v.1.15,2013-09-08 04:32:00,
2013-09-08 00:34:00,57.9,44.1,29.83,WNW,300,0.0,3.0,60,0.00,,,0.00,Wunderground v.1.15,2013-09-08 04:34:00,
2013-09-08 00:35:00,58.0,44.2,29.83,SSE,159,0.0,3.0,60,0.00,,,0.00,Wunderground v.1.15,2013-09-08 04:35:00,
2013-09-08 00:36:00,58.0,44.6,29.83,WSW,248,2.0,3.0,61,0.00,,,0.00,Wunderground v.1.15,2013-09-08 04:36:00,
2013-09-08 00:40:00,58.1,44.7,29.83,SSW,199,0.0,1.0,61,0.00,,,0.00,Wunderground v.1.15,2013-09-08 04:40:00,
2013-09-08 00:41:00,58.1,45.6,29.83,SSE,153,5.0,5.0,63,0.00,,,0.00,Wunderground v.1.15,2013-09-08 04:41:00,
2013-09-08 00:42:00,58.1,44.7,29.83,SSE,166,0.0,5.0,61,0.00,,,0.00,Wunderground v.1.15,2013-09-08 04:42:00,
2013-09-08 00:45:00,58.1,45.6,29.83,SW,236,0.0,5.0,63,0.00,,,0.00,Wunderground v.1.15,2013-09-08 04:45:00,
2013-09-08 00:48:00,58.1,46.0,29.83,WSW,238,0.0,5.0,64,0.00,,,0.00,Wunderground v.1.15,2013-09-08 04:48:00,
2013-09-08 00:50:00,58.0,45.0,29.83,WSW,238,0.0,1.0,62,0.00,,,0.00,Wunderground v.1.15,2013-09-08 04:50:00,
2013-09-08 00:53:00,58.0,45.0,29.83,NW,320,3.0,3.0,62,0.00,,,0.00,Wunderground v.1.15,2013-09-08 04:53:00,
2013-09-08 00:55:00,58.0,44.6,29.83,WNW,294,0.0,3.0,61,0.00,,,0.00,Wunderground v.1.15,2013-09-08 04:55:00,
2013-09-08 00:57:00,57.9,45.0,29.82,WNW,294,0.0,3.0,62,0.00,,,0.00,Wunderground v.1.15,2013-09-08 04:57:00,
2013-09-08 00:58:00,57.9,45.8,29.82,WNW,294,0.0,3.0,64,0.00,,,0.00,Wunderground v.1.15,2013-09-08 04:58:00,
2013-09-08 01:00:00,57.8,45.3,29.82,WNW,294,0.0,0.0,63,0.00,,,0.00,Wunderground v.1.15,2013-09-08 05:00:00,
2013-09-08 01:01:00,57.8,45.7,29.82,NNE,25,0.0,0.0,64,0.00,,,0.00,Wunderground v.1.15,2013-09-08 05:01:00,
2013-09-08 01:05:00,57.8,46.1,29.82,SW,223,0.0,1.0,65,0.00,,,0.00,Wunderground v.1.15,2013-09-08 05:05:00,
2013-09-08 01:07:00,57.8,46.5,29.82,SSE,148,0.0,1.0,66,0.00,,,0.00,Wunderground v.1.15,2013-09-08 05:07:00,
2013-09-08 01:09:00,57.8,46.5,29.82,SW,222,0.0,1.0,66,0.00,,,0.00,Wunderground v.1.15,2013-09-08 05:09:00,
2013-09-08 01:10:00,57.8,46.5,29.82,South,179,0.0,0.0,66,0.00,,,0.00,Wunderground v.1.15,2013-09-08 05:10:00,
2013-09-08 01:12:00,57.9,47.0,29.82,North,9,0.0,0.0,67,0.00,,,0.00,Wunderground v.1.15,2013-09-08 05:12:00,
2013-09-08 01:14:00,57.9,47.0,29.82,NW,322,0.0,0.0,67,0.00,,,0.00,Wunderground v.1.15,2013-09-08 05:14:00,
2013-09-08 01:18:00,58.1,47.6,29.82,SE,126,1.0,4.0,68,0.00,,,0.00,Wunderground v.1.15,2013-09-08 05:18:00,
2013-09-08 01:20:00,58.1,47.6,29.82,South,171,0.0,0.0,68,0.00,,,0.00,Wunderground v.1.15,2013-09-08 05:20:00,
2013-09-08 01:21:00,58.1,47.6,29.82,SW,232,0.0,0.0,68,0.00,,,0.00,Wunderground v.1.15,2013-09-08 05:21:00,
2013-09-08 01:22:00,58.2,47.7,29.83,North,360,3.0,3.0,68,0.00,,,0.00,Wunderground v.1.15,2013-09-08 05:22:00,
2013-09-08 01:23:00,58.2,48.1,29.82,South,186,2.0,3.0,69,0.00,,,0.00,Wunderground v.1.15,2013-09-08 05:23:00,
2013-09-08 01:27:00,58.3,48.6,29.82,North,360,1.0,3.0,70,0.00,,,0.00,Wunderground v.1.15,2013-09-08 05:27:00,
2013-09-08 01:29:00,58.4,48.3,29.82,WSW,242,0.0,3.0,69,0.00,,,0.00,Wunderground v.1.15,2013-09-08 05:29:00,
2013-09-08 01:30:00,58.4,48.7,29.82,West,279,5.0,5.0,70,0.00,,,0.00,Wunderground v.1.15,2013-09-08 05:30:00,
2013-09-08 01:33:00,58.5,48.7,29.82,WSW,253,0.0,8.0,70,0.00,,,0.00,Wunderground v.1.15,2013-09-08 05:33:00,
2013-09-08 01:35:00,58.6,48.8,29.82,SW,219,0.0,8.0,70,0.00,,,0.00,Wunderground v.1.15,2013-09-08 05:35:00,
2013-09-08 01:36:00,58.6,49.2,29.82,SW,219,1.0,8.0,71,0.00,,,0.00,Wunderground v.1.15,2013-09-08 05:36:00,
2013-09-08 01:38:00,58.6,49.2,29.82,SW,219,0.0,8.0,71,0.00,,,0.00,Wunderground v.1.15,2013-09-08 05:38:00,
2013-09-08 01:39:00,58.6,49.2,29.81,West,270,3.0,8.0,71,0.00,,,0.00,Wunderground v.1.15,2013-09-08 05:39:00,
2013-09-08 01:41:00,58.6,49.6,29.81,SW,222,0.0,1.0,72,0.00,,,0.00,Wunderground v.1.15,2013-09-08 05:41:00,
2013-09-08 01:42:00,58.6,49.6,29.81,West,279,0.0,1.0,72,0.00,,,0.00,Wunderground v.1.15,2013-09-08 05:42:00,
2013-09-08 01:45:00,58.6,49.6,29.81,WSW,246,0.0,3.0,72,0.00,,,0.00,Wunderground v.1.15,2013-09-08 05:45:00,
2013-09-08 01:47:00,58.7,49.7,29.81,West,278,2.0,3.0,72,0.00,,,0.00,Wunderground v.1.15,2013-09-08 05:47:00,
2013-09-08 01:48:00,58.7,49.3,29.81,South,174,4.0,4.0,71,0.00,,,0.00,Wunderground v.1.15,2013-09-08 05:48:00,
2013-09-08 01:49:00,58.8,49.4,29.81,SW,227,0.0,4.0,71,0.00,,,0.00,Wunderground v.1.15,2013-09-08 05:49:00,
2013-09-08 01:53:00,58.9,49.9,29.80,WSW,246,0.0,6.0,72,0.00,,,0.00,Wunderground v.1.15,2013-09-08 05:53:00,
2013-09-08 01:55:00,58.9,49.9,29.80,West,260,1.0,6.0,72,0.00,,,0.00,Wunderground v.1.15,2013-09-08 05:55:00,
2013-09-08 01:56:00,58.9,50.3,29.80,SSW,194,2.0,6.0,73,0.00,,,0.00,Wunderground v.1.15,2013-09-08 05:56:00,
2013-09-08 01:57:00,58.8,49.8,29.80,SSW,207,0.0,6.0,72,0.00,,,0.00,Wunderground v.1.15,2013-09-08 05:57:00,
2013-09-08 02:00:00,58.7,50.1,29.80,WNW,289,1.0,2.0,73,0.00,,,0.00,Wunderground v.1.15,2013-09-08 06:00:00,
2013-09-08 02:01:00,58.7,50.1,29.80,WNW,289,0.0,2.0,73,0.00,,,0.00,Wunderground v.1.15,2013-09-08 06:01:00,
2013-09-08 02:02:00,58.7,50.1,29.80,North,360,2.0,4.0,73,0.00,,,0.00,Wunderground v.1.15,2013-09-08 06:02:00,
2013-09-08 02:05:00,58.8,50.2,29.80,South,186,2.0,5.0,73,0.00,,,0.00,Wunderground v.1.15,2013-09-08 06:05:00,
2013-09-08 02:06:00,58.8,50.2,29.80,SW,214,0.0,5.0,73,0.00,,,0.00,Wunderground v.1.15,2013-09-08 06:06:00,
2013-09-08 02:07:00,58.8,50.5,29.80,SW,214,0.0,5.0,74,0.00,,,0.00,Wunderground v.1.15,2013-09-08 06:07:00,
2013-09-08 02:10:00,58.5,50.6,29.80,WSW,238,0.0,2.0,75,0.00,,,0.00,Wunderground v.1.15,2013-09-08 06:10:00,
2013-09-08 02:11:00,58.4,50.5,29.79,WSW,238,2.0,3.0,75,0.00,,,0.00,Wunderground v.1.15,2013-09-08 06:11:00,
2013-09-08 02:12:00,58.4,50.9,29.79,WSW,238,0.0,3.0,76,0.00,,,0.00,Wunderground v.1.15,2013-09-08 06:12:00,
2013-09-08 02:15:00,58.2,50.7,29.79,SSW,209,1.0,3.0,76,0.00,,,0.00,Wunderground v.1.15,2013-09-08 06:15:00,
2013-09-08 02:17:00,58.2,51.0,29.79,West,273,0.0,4.0,77,0.00,,,0.00,Wunderground v.1.15,2013-09-08 06:17:00,
2013-09-08 02:18:00,58.1,50.9,29.79,SSE,164,1.0,4.0,77,0.00,,,0.00,Wunderground v.1.15,2013-09-08 06:18:00,
2013-09-08 02:20:00,58.0,51.2,29.79,SW,219,7.0,7.0,78,0.00,,,0.00,Wunderground v.1.15,2013-09-08 06:20:00,
2013-09-08 02:23:00,58.0,50.8,29.78,SW,219,5.0,8.0,77,0.00,,,0.00,Wunderground v.1.15,2013-09-08 06:23:00,
2013-09-08 02:25:00,58.0,51.2,29.78,WNW,284,1.0,8.0,78,0.00,,,0.00,Wunderground v.1.15,2013-09-08 06:25:00,
2013-09-08 02:28:00,57.8,51.3,29.78,West,267,5.0,11.0,79,0.00,,,0.00,Wunderground v.1.15,2013-09-08 06:28:00,
2013-09-08 02:29:00,57.8,51.3,29.78,WNW,291,6.0,11.0,79,0.00,,,0.00,Wunderground v.1.15,2013-09-08 06:29:00,
2013-09-08 02:31:00,57.8,51.7,29.78,North,360,6.0,11.0,80,0.00,,,0.00,Wunderground v.1.15,2013-09-08 06:31:00,
2013-09-08 02:33:00,57.8,51.7,29.78,West,280,1.0,11.0,80,0.00,,,0.00,Wunderground v.1.15,2013-09-08 06:33:00,
2013-09-08 02:34:00,57.8,51.7,29.77,WSW,257,2.0,11.0,80,0.00,,,0.00,Wunderground v.1.15,2013-09-08 06:34:00,
2013-09-08 02:35:00,57.7,51.6,29.78,West,281,2.0,11.0,80,0.00,,,0.00,Wunderground v.1.15,2013-09-08 06:35:00,
2013-09-08 02:36:00,57.7,51.9,29.78,WSW,254,0.0,11.0,81,0.00,,,0.00,Wunderground v.1.15,2013-09-08 06:36:00,
2013-09-08 02:38:00,57.6,51.8,29.78,North,360,0.0,11.0,81,0.00,,,0.00,Wunderground v.1.15,2013-09-08 06:38:00,
2013-09-08 02:39:00,57.6,51.8,29.78,WSW,248,4.0,11.0,81,0.00,,,0.00,Wunderground v.1.15,2013-09-08 06:39:00,
2013-09-08 02:41:00,57.6,51.8,29.78,West,281,5.0,6.0,81,0.00,,,0.00,Wunderground v.1.15,2013-09-08 06:41:00,
2013-09-08 02:43:00,57.7,52.2,29.78,West,263,0.0,9.0,82,0.00,,,0.00,Wunderground v.1.15,2013-09-08 06:43:00,
2013-09-08 02:44:00,57.7,52.2,29.78,West,263,0.0,9.0,82,0.00,,,0.00,Wunderground v.1.15,2013-09-08 06:44:00,
2013-09-08 02:45:00,57.7,52.2,29.78,South,173,1.0,9.0,82,0.00,,,0.00,Wunderground v.1.15,2013-09-08 06:45:00,
2013-09-08 02:46:00,57.6,52.1,29.78,SW,223,1.0,9.0,82,0.00,,,0.00,Wunderground v.1.15,2013-09-08 06:46:00,
2013-09-08 02:47:00,57.6,52.1,29.78,WSW,257,5.0,9.0,82,0.00,,,0.00,Wunderground v.1.15,2013-09-08 06:47:00,
2013-09-08 02:48:00,57.5,52.0,29.78,West,261,0.0,9.0,82,0.00,,,0.00,Wunderground v.1.15,2013-09-08 06:48:00,
2013-09-08 02:49:00,57.6,52.1,29.78,West,261,0.0,9.0,82,0.00,,,0.00,Wunderground v.1.15,2013-09-08 06:49:00,
2013-09-08 02:50:00,57.5,52.0,29.78,West,264,0.0,2.0,82,0.00,,,0.00,Wunderground v.1.15,2013-09-08 06:50:00,
2013-09-08 02:51:00,57.5,52.4,29.78,WSW,258,3.0,3.0,83,0.00,,,0.00,Wunderground v.1.15,2013-09-08 06:51:00,
2013-09-08 02:52:00,57.3,52.2,29.78,West,261,1.0,4.0,83,0.00,,,0.00,Wunderground v.1.15,2013-09-08 06:52:00,
2013-09-08 02:54:00,57.3,52.5,29.78,WSW,257,0.0,6.0,84,0.00,,,0.00,Wunderground v.1.15,2013-09-08 06:54:00,
2013-09-08 02:55:00,57.3,52.2,29.78,WSW,257,0.0,6.0,83,0.00,,,0.00,Wunderground v.1.15,2013-09-08 06:55:00,
2013-09-08 02:56:00,57.2,52.1,29.78,North,360,4.0,6.0,83,0.00,,,0.00,Wunderground v.1.15,2013-09-08 06:56:00,
2013-09-08 02:58:00,57.2,52.1,29.78,SW,216,0.0,6.0,83,0.00,,,0.00,Wunderground v.1.15,2013-09-08 06:58:00,
2013-09-08 03:00:00,57.1,52.3,29.78,SW,216,0.0,1.0,84,0.00,,,0.00,Wunderground v.1.15,2013-09-08 07:00:00,
2013-09-08 03:01:00,57.1,52.3,29.78,SW,216,0.0,1.0,84,0.00,,,0.00,Wunderground v.1.15,2013-09-08 07:01:00,
2013-09-08 03:04:00,57.0,51.9,29.78,WSW,246,0.0,2.0,83,0.00,,,0.00,Wunderground v.1.15,2013-09-08 07:04:00,
2013-09-08 03:05:00,57.0,52.2,29.78,West,262,6.0,8.0,84,0.00,,,0.00,Wunderground v.1.15,2013-09-08 07:05:00,
2013-09-08 03:06:00,57.0,52.2,29.78,West,262,6.0,8.0,84,0.00,,,0.00,Wunderground v.1.15,2013-09-08 07:06:00,
2013-09-08 03:07:00,57.0,52.2,29.78,West,262,6.0,8.0,84,0.00,,,0.00,Wunderground v.1.15,2013-09-08 07:07:00,
2013-09-08 03:10:00,57.1,52.3,29.78,West,265,2.0,2.0,84,0.00,,,0.00,Wunderground v.1.15,2013-09-08 07:10:00,
2013-09-08 03:11:00,57.1,52.6,29.78,WNW,296,0.0,3.0,85,0.00,,,0.00,Wunderground v.1.15,2013-09-08 07:11:00,
2013-09-08 03:12:00,57.1,52.3,29.78,WSW,250,3.0,4.0,84,0.00,,,0.00,Wunderground v.1.15,2013-09-08 07:12:00,
2013-09-08 03:13:00,57.1,52.6,29.78,WNW,287,0.0,4.0,85,0.00,,,0.00,Wunderground v.1.15,2013-09-08 07:13:00,
2013-09-08 03:15:00,57.1,52.6,29.78,WNW,287,0.0,4.0,85,0.00,,,0.00,Wunderground v.1.15,2013-09-08 07:15:00,
2013-09-08 03:16:00,57.1,52.6,29.78,WNW,285,2.0,4.0,85,0.00,,,0.00,Wunderground v.1.15,2013-09-08 07:16:00,
2013-09-08 03:17:00,57.1,52.6,29.78,West,274,0.0,4.0,85,0.00,,,0.00,Wunderground v.1.15,2013-09-08 07:17:00,
2013-09-08 03:19:00,57.1,52.6,29.78,West,274,0.0,4.0,85,0.00,,,0.00,Wunderground v.1.15,2013-09-08 07:19:00,
2013-09-08 03:20:00,57.1,52.6,29.78,SSW,203,0.0,2.0,85,0.00,,,0.00,Wunderground v.1.15,2013-09-08 07:20:00,
2013-09-08 03:21:00,57.1,52.6,29.78,WNW,300,0.0,2.0,85,0.00,,,0.00,Wunderground v.1.15,2013-09-08 07:21:00,
2013-09-08 03:22:00,57.1,52.6,29.78,WNW,300,0.0,2.0,85,0.00,,,0.00,Wunderground v.1.15,2013-09-08 07:22:00,
2013-09-08 03:24:00,57.1,52.6,29.78,West,265,1.0,4.0,85,0.00,,,0.00,Wunderground v.1.15,2013-09-08 07:24:00,
2013-09-08 03:26:00,57.0,52.9,29.78,WSW,242,1.0,4.0,86,0.00,,,0.00,Wunderground v.1.15,2013-09-08 07:26:00,
2013-09-08 03:27:00,57.0,52.9,29.78,SSE,148,2.0,4.0,86,0.00,,,0.00,Wunderground v.1.15,2013-09-08 07:27:00,
2013-09-08 03:29:00,57.0,53.2,29.78,WSW,248,2.0,4.0,87,0.00,,,0.00,Wunderground v.1.15,2013-09-08 07:29:00,
2013-09-08 03:31:00,57.0,53.2,29.78,West,271,1.0,2.0,87,0.00,,,0.00,Wunderground v.1.15,2013-09-08 07:31:00,
2013-09-08 03:32:00,57.0,53.2,29.78,West,267,2.0,3.0,87,0.00,,,0.00,Wunderground v.1.15,2013-09-08 07:32:00,
2013-09-08 03:33:00,57.0,53.2,29.78,West,267,0.0,3.0,87,0.00,,,0.00,Wunderground v.1.15,2013-09-08 07:33:00,
2013-09-08 03:34:00,56.9,53.1,29.78,West,275,1.0,3.0,87,0.00,,,0.00,Wunderground v.1.15,2013-09-08 07:34:00,
2013-09-08 03:36:00,56.9,53.1,29.78,WNW,302,0.0,3.0,87,0.00,,,0.00,Wunderground v.1.15,2013-09-08 07:36:00,
2013-09-08 03:37:00,56.9,53.4,29.78,NE,41,0.0,4.0,88,0.00,,,0.00,Wunderground v.1.15,2013-09-08 07:37:00,
2013-09-08 03:38:00,56.8,53.3,29.78,NW,304,1.0,4.0,88,0.00,,,0.00,Wunderground v.1.15,2013-09-08 07:38:00,
2013-09-08 03:40:00,56.8,53.3,29.78,NW,308,0.0,1.0,88,0.00,,,0.00,Wunderground v.1.15,2013-09-08 07:40:00,
2013-09-08 03:41:00,56.8,53.6,29.78,WNW,293,2.0,6.0,89,0.00,,,0.00,Wunderground v.1.15,2013-09-08 07:41:00,
2013-09-08 03:43:00,56.7,53.5,29.78,North,360,0.0,6.0,89,0.00,,,0.00,Wunderground v.1.15,2013-09-08 07:43:00,
2013-09-08 03:44:00,56.7,53.5,29.78,NW,306,0.0,6.0,89,0.00,,,0.00,Wunderground v.1.15,2013-09-08 07:44:00,
2013-09-08 03:45:00,56.6,53.4,29.78,West,259,1.0,8.0,89,0.00,,,0.00,Wunderground v.1.15,2013-09-08 07:45:00,
2013-09-08 03:46:00,56.6,53.4,29.78,WSW,246,0.0,8.0,89,0.00,,,0.00,Wunderground v.1.15,2013-09-08 07:46:00,
2013-09-08 03:48:00,56.6,53.7,29.78,WNW,294,1.0,8.0,90,0.00,,,0.00,Wunderground v.1.15,2013-09-08 07:48:00,
2013-09-08 03:49:00,56.6,53.7,29.78,WNW,294,0.0,8.0,90,0.00,,,0.00,Wunderground v.1.15,2013-09-08 07:49:00,
2013-09-08 03:51:00,56.5,53.6,29.78,West,280,0.0,3.0,90,0.00,,,0.00,Wunderground v.1.15,2013-09-08 07:51:00,
2013-09-08 03:53:00,56.5,53.6,29.78,West,281,0.0,3.0,90,0.00,,,0.00,Wunderground v.1.15,2013-09-08 07:53:00,
2013-09-08 03:54:00,56.5,53.6,29.78,West,281,0.0,3.0,90,0.00,,,0.00,Wunderground v.1.15,2013-09-08 07:54:00,
2013-09-08 03:56:00,56.4,53.5,29.78,West,281,0.0,3.0,90,0.00,,,0.00,Wunderground v.1.15,2013-09-08 07:56:00,
2013-09-08 03:58:00,56.4,53.8,29.78,West,260,0.0,3.0,91,0.00,,,0.00,Wunderground v.1.15,2013-09-08 07:58:00,
2013-09-08 04:00:00,56.4,53.8,29.78,West,260,0.0,0.0,91,0.00,,,0.00,Wunderground v.1.15,2013-09-08 08:00:00,
2013-09-08 04:01:00,56.3,53.7,29.78,West,260,0.0,0.0,91,0.00,,,0.00,Wunderground v.1.15,2013-09-08 08:01:00,
2013-09-08 04:02:00,56.3,53.7,29.78,West,260,1.0,1.0,91,0.00,,,0.00,Wunderground v.1.15,2013-09-08 08:02:00,
2013-09-08 04:03:00,56.3,54.0,29.78,NNE,27,0.0,4.0,92,0.00,,,0.00,Wunderground v.1.15,2013-09-08 08:03:00,
2013-09-08 04:05:00,56.3,54.0,29.78,SW,221,0.0,4.0,92,0.00,,,0.00,Wunderground v.1.15,2013-09-08 08:05:00,
2013-09-08 04:06:00,56.3,54.0,29.77,WSW,250,2.0,4.0,92,0.00,,,0.00,Wunderground v.1.15,2013-09-08 08:06:00,
2013-09-08 04:07:00,56.2,53.9,29.77,NNW,327,0.0,4.0,92,0.00,,,0.00,Wunderground v.1.15,2013-09-08 08:07:00,
2013-09-08 04:08:00,56.2,53.9,29.77,SW,232,0.0,4.0,92,0.00,,,0.00,Wunderground v.1.15,2013-09-08 08:08:00,
2013-09-08 04:09:00,56.2,53.9,29.77,SW,219,1.0,4.0,92,0.00,,,0.00,Wunderground v.1.15,2013-09-08 08:09:00,
2013-09-08 04:10:00,56.2,53.9,29.77,SSW,207,3.0,4.0,92,0.00,,,0.00,Wunderground v.1.15,2013-09-08 08:10:00,
2013-09-08 04:12:00,56.2,53.9,29.76,WSW,241,0.0,4.0,92,0.00,,,0.00,Wunderground v.1.15,2013-09-08 08:12:00,
2013-09-08 04:14:00,56.2,54.2,29.76,SSW,196,1.0,4.0,93,0.00,,,0.00,Wunderground v.1.15,2013-09-08 08:14:00,
2013-09-08 04:15:00,56.1,54.1,29.76,South,183,2.0,5.0,93,0.00,,,0.01,Wunderground v.1.15,2013-09-08 08:15:00,
2013-09-08 04:17:00,56.1,54.1,29.76,SW,221,1.0,5.0,93,0.00,,,0.01,Wunderground v.1.15,2013-09-08 08:17:00,
2013-09-08 04:19:00,56.0,54.0,29.76,SW,221,0.0,5.0,93,0.00,,,0.01,Wunderground v.1.15,2013-09-08 08:19:00,
2013-09-08 04:20:00,56.0,54.3,29.76,WSW,247,1.0,3.0,94,0.00,,,0.01,Wunderground v.1.15,2013-09-08 08:20:00,
2013-09-08 04:22:00,55.9,54.2,29.76,WNW,283,0.0,3.0,94,0.00,,,0.01,Wunderground v.1.15,2013-09-08 08:22:00,
2013-09-08 04:23:00,55.9,54.2,29.76,WNW,283,0.0,3.0,94,0.00,,,0.01,Wunderground v.1.15,2013-09-08 08:23:00,
2013-09-08 04:24:00,55.9,54.2,29.76,WNW,284,0.0,3.0,94,0.00,,,0.01,Wunderground v.1.15,2013-09-08 08:24:00,
2013-09-08 04:25:00,55.9,54.2,29.76,West,280,0.0,3.0,94,0.00,,,0.01,Wunderground v.1.15,2013-09-08 08:25:00,
2013-09-08 04:28:00,55.8,54.1,29.76,WSW,257,2.0,3.0,94,0.00,,,0.01,Wunderground v.1.15,2013-09-08 08:28:00,
2013-09-08 04:29:00,55.7,54.0,29.76,WSW,257,1.0,3.0,94,0.00,,,0.01,Wunderground v.1.15,2013-09-08 08:29:00,
2013-09-08 04:30:00,55.7,54.3,29.76,WSW,257,0.0,0.0,95,0.00,,,0.01,Wunderground v.1.15,2013-09-08 08:30:00,
2013-09-08 04:31:00,55.7,54.3,29.76,WSW,257,0.0,1.0,95,0.00,,,0.01,Wunderground v.1.15,2013-09-08 08:31:00,
2013-09-08 04:33:00,55.6,54.2,29.76,WSW,257,0.0,1.0,95,0.00,,,0.01,Wunderground v.1.15,2013-09-08 08:33:00,
2013-09-08 04:34:00,55.6,54.2,29.76,WSW,257,0.0,1.0,95,0.00,,,0.01,Wunderground v.1.15,2013-09-08 08:34:00,
2013-09-08 04:35:00,55.6,54.2,29.76,WSW,257,0.0,1.0,95,0.00,,,0.01,Wunderground v.1.15,2013-09-08 08:35:00,
2013-09-08 04:36:00,55.6,54.2,29.76,WSW,257,0.0,1.0,95,0.00,,,0.01,Wunderground v.1.15,2013-09-08 08:36:00,
2013-09-08 04:38:00,55.5,54.1,29.75,WSW,257,0.0,1.0,95,0.00,,,0.01,Wunderground v.1.15,2013-09-08 08:38:00,
2013-09-08 04:40:00,55.5,54.1,29.75,WSW,257,0.0,0.0,95,0.00,,,0.01,Wunderground v.1.15,2013-09-08 08:40:00,
2013-09-08 04:41:00,55.5,54.1,29.75,WSW,257,0.0,1.0,95,0.00,,,0.01,Wunderground v.1.15,2013-09-08 08:41:00,
2013-09-08 04:42:00,55.5,54.1,29.75,WSW,257,0.0,1.0,95,0.00,,,0.01,Wunderground v.1.15,2013-09-08 08:42:00,
2013-09-08 04:43:00,55.4,54.0,29.75,WSW,257,0.0,1.0,95,0.00,,,0.01,Wunderground v.1.15,2013-09-08 08:43:00,
2013-09-08 04:45:00,55.4,54.0,29.75,WSW,257,0.0,1.0,95,0.00,,,0.01,Wunderground v.1.15,2013-09-08 08:45:00,
2013-09-08 04:47:00,55.3,53.9,29.75,WSW,257,0.0,1.0,95,0.00,,,0.01,Wunderground v.1.15,2013-09-08 08:47:00,
2013-09-08 04:48:00,55.3,53.9,29.75,WSW,257,0.0,1.0,95,0.00,,,0.01,Wunderground v.1.15,2013-09-08 08:48:00,
2013-09-08 04:49:00,55.3,53.9,29.75,WSW,257,0.0,1.0,95,0.00,,,0.01,Wunderground v.1.15,2013-09-08 08:49:00,
2013-09-08 04:50:00,55.2,54.1,29.75,WSW,257,0.0,1.0,96,0.00,,,0.01,Wunderground v.1.15,2013-09-08 08:50:00,
2013-09-08 04:51:00,55.2,54.1,29.75,WSW,257,0.0,1.0,96,0.00,,,0.01,Wunderground v.1.15,2013-09-08 08:51:00,
2013-09-08 04:52:00,55.2,54.1,29.75,WSW,257,0.0,1.0,96,0.00,,,0.01,Wunderground v.1.15,2013-09-08 08:52:00,
2013-09-08 04:53:00,55.2,54.1,29.75,West,272,3.0,3.0,96,0.00,,,0.01,Wunderground v.1.15,2013-09-08 08:53:00,
2013-09-08 04:54:00,55.2,54.1,29.75,West,272,1.0,3.0,96,0.00,,,0.01,Wunderground v.1.15,2013-09-08 08:54:00,
2013-09-08 04:56:00,55.2,54.1,29.75,West,265,4.0,6.0,96,0.00,,,0.01,Wunderground v.1.15,2013-09-08 08:56:00,
2013-09-08 04:57:00,55.2,54.1,29.75,West,265,0.0,6.0,96,0.00,,,0.01,Wunderground v.1.15,2013-09-08 08:57:00,
2013-09-08 04:58:00,55.2,54.1,29.75,WSW,247,0.0,6.0,96,0.00,,,0.01,Wunderground v.1.15,2013-09-08 08:58:00,
2013-09-08 04:59:00,55.2,54.1,29.75,WSW,247,0.0,6.0,96,0.00,,,0.01,Wunderground v.1.15,2013-09-08 08:59:00,
2013-09-08 05:01:00,55.2,54.1,29.75,West,281,1.0,5.0,96,0.00,,,0.01,Wunderground v.1.15,2013-09-08 09:01:00,
2013-09-08 05:02:00,55.2,54.1,29.75,WSW,257,0.0,5.0,96,0.00,,,0.01,Wunderground v.1.15,2013-09-08 09:02:00,
2013-09-08 05:04:00,55.2,54.1,29.75,WSW,257,0.0,5.0,96,0.00,,,0.01,Wunderground v.1.15,2013-09-08 09:04:00,
2013-09-08 05:06:00,55.2,54.1,29.75,WSW,257,0.0,5.0,96,0.00,,,0.01,Wunderground v.1.15,2013-09-08 09:06:00,
2013-09-08 05:07:00,55.2,54.1,29.75,WSW,257,0.0,5.0,96,0.00,,,0.01,Wunderground v.1.15,2013-09-08 09:07:00,
2013-09-08 05:09:00,55.3,54.2,29.75,WSW,257,0.0,5.0,96,0.00,,,0.01,Wunderground v.1.15,2013-09-08 09:09:00,
2013-09-08 05:11:00,55.3,54.2,29.75,WSW,257,0.0,1.0,96,0.00,,,0.01,Wunderground v.1.15,2013-09-08 09:11:00,
2013-09-08 05:12:00,55.3,54.2,29.75,West,272,1.0,4.0,96,0.00,,,0.01,Wunderground v.1.15,2013-09-08 09:12:00,
2013-09-08 05:13:00,55.3,54.5,29.75,WNW,290,1.0,4.0,97,0.00,,,0.01,Wunderground v.1.15,2013-09-08 09:13:00,
2013-09-08 05:14:00,55.3,54.5,29.75,WNW,289,0.0,4.0,97,0.00,,,0.01,Wunderground v.1.15,2013-09-08 09:14:00,
2013-09-08 05:15:00,55.3,54.5,29.75,WNW,289,0.0,4.0,97,0.00,,,0.01,Wunderground v.1.15,2013-09-08 09:15:00,
2013-09-08 05:17:00,55.3,54.5,29.75,SSW,209,0.0,4.0,97,0.00,,,0.01,Wunderground v.1.15,2013-09-08 09:17:00,
2013-09-08 05:18:00,55.3,54.5,29.75,WNW,284,0.0,4.0,97,0.00,,,0.01,Wunderground v.1.15,2013-09-08 09:18:00,
2013-09-08 05:20:00,55.4,54.6,29.75,SW,219,0.0,0.0,97,0.00,,,0.01,Wunderground v.1.15,2013-09-08 09:20:00,
2013-09-08 05:22:00,55.4,54.6,29.76,SSW,205,0.0,1.0,97,0.00,,,0.01,Wunderground v.1.15,2013-09-08 09:22:00,
2013-09-08 05:23:00,55.4,54.6,29.76,WSW,252,0.0,2.0,97,0.00,,,0.01,Wunderground v.1.15,2013-09-08 09:23:00,
2013-09-08 05:25:00,55.5,54.7,29.76,NNW,333,1.0,3.0,97,0.00,,,0.01,Wunderground v.1.15,2013-09-08 09:25:00,
2013-09-08 05:26:00,55.5,54.7,29.76,NNW,330,0.0,3.0,97,0.00,,,0.01,Wunderground v.1.15,2013-09-08 09:26:00,
2013-09-08 05:27:00,55.5,54.7,29.76,WNW,284,2.0,3.0,97,0.00,,,0.01,Wunderground v.1.15,2013-09-08 09:27:00,
2013-09-08 05:28:00,55.5,54.7,29.76,West,260,2.0,3.0,97,0.00,,,0.01,Wunderground v.1.15,2013-09-08 09:28:00,
2013-09-08 05:31:00,55.5,54.7,29.76,WSW,251,0.0,1.0,97,0.00,,,0.01,Wunderground v.1.15,2013-09-08 09:31:00,
2013-09-08 05:32:00,55.5,54.7,29.76,SSW,202,0.0,1.0,97,0.00,,,0.01,Wunderground v.1.15,2013-09-08 09:32:00,
2013-09-08 05:33:00,55.5,54.7,29.76,SSW,202,1.0,1.0,97,0.00,,,0.01,Wunderground v.1.15,2013-09-08 09:33:00,
2013-09-08 05:34:00,55.5,54.7,29.76,SSW,212,0.0,1.0,97,0.00,,,0.01,Wunderground v.1.15,2013-09-08 09:34:00,
2013-09-08 05:36:00,55.5,54.7,29.76,SSW,212,0.0,1.0,97,0.00,,,0.01,Wunderground v.1.15,2013-09-08 09:36:00,
2013-09-08 05:37:00,55.5,54.7,29.76,SSW,212,0.0,1.0,97,0.00,,,0.01,Wunderground v.1.15,2013-09-08 09:37:00,
2013-09-08 05:38:00,55.6,54.8,29.76,SSW,212,0.0,1.0,97,0.00,,,0.01,Wunderground v.1.15,2013-09-08 09:38:00,
2013-09-08 05:39:00,55.6,54.8,29.76,West,271,0.0,4.0,97,0.00,,,0.01,Wunderground v.1.15,2013-09-08 09:39:00,
2013-09-08 05:42:00,55.6,54.8,29.75,WSW,255,1.0,1.0,97,0.00,,,0.01,Wunderground v.1.15,2013-09-08 09:42:00,
2013-09-08 05:43:00,55.7,54.9,29.76,SSW,193,0.0,5.0,97,0.00,,,0.01,Wunderground v.1.15,2013-09-08 09:43:00,
2013-09-08 05:45:00,55.7,54.9,29.75,South,191,0.0,5.0,97,0.00,,,0.01,Wunderground v.1.15,2013-09-08 09:45:00,
2013-09-08 05:47:00,55.7,54.9,29.75,South,191,0.0,5.0,97,0.00,,,0.01,Wunderground v.1.15,2013-09-08 09:47:00,
2013-09-08 05:48:00,55.7,54.9,29.75,South,191,0.0,5.0,97,0.00,,,0.01,Wunderground v.1.15,2013-09-08 09:48:00,
2013-09-08 05:49:00,55.8,55.0,29.76,WNW,296,2.0,5.0,97,0.00,,,0.01,Wunderground v.1.15,2013-09-08 09:49:00,
2013-09-08 05:50:00,55.7,54.9,29.75,West,280,0.0,0.0,97,0.00,,,0.01,Wunderground v.1.15,2013-09-08 09:50:00,
2013-09-08 05:52:00,55.8,55.0,29.76,West,280,0.0,1.0,97,0.00,,,0.01,Wunderground v.1.15,2013-09-08 09:52:00,
2013-09-08 05:53:00,55.8,55.0,29.76,West,281,0.0,2.0,97,0.00,,,0.01,Wunderground v.1.15,2013-09-08 09:53:00,
2013-09-08 05:55:00,55.8,54.7,29.76,SW,233,0.0,2.0,96,0.00,,,0.01,Wunderground v.1.15,2013-09-08 09:55:00,
2013-09-08 05:57:00,55.8,54.7,29.75,WSW,253,0.0,3.0,96,0.00,,,0.01,Wunderground v.1.15,2013-09-08 09:57:00,
2013-09-08 05:58:00,55.8,54.7,29.75,WSW,253,0.0,3.0,96,0.00,,,0.01,Wunderground v.1.15,2013-09-08 09:58:00,
2013-09-08 05:59:00,55.9,54.8,29.76,WSW,253,0.0,3.0,96,0.00,,,0.01,Wunderground v.1.15,2013-09-08 09:59:00,
2013-09-08 06:00:00,55.9,54.8,29.76,WSW,242,0.0,2.0,96,0.00,,,0.01,Wunderground v.1.15,2013-09-08 10:00:00,
2013-09-08 06:01:00,55.8,54.7,29.76,SSW,212,2.0,2.0,96,0.00,,,0.01,Wunderground v.1.15,2013-09-08 10:01:00,
2013-09-08 06:03:00,55.9,54.8,29.76,SSW,207,0.0,4.0,96,0.00,,,0.01,Wunderground v.1.15,2013-09-08 10:03:00,
2013-09-08 06:04:00,55.9,54.8,29.76,NW,315,0.0,4.0,96,0.00,,,0.01,Wunderground v.1.15,2013-09-08 10:04:00,
2013-09-08 06:05:00,55.9,55.1,29.76,SW,223,0.0,4.0,97,0.00,,,0.01,Wunderground v.1.15,2013-09-08 10:05:00,
2013-09-08 06:06:00,55.9,55.1,29.76,SSW,203,0.0,4.0,97,0.00,,,0.01,Wunderground v.1.15,2013-09-08 10:06:00,
2013-09-08 06:08:00,56.0,55.2,29.76,West,279,0.0,4.0,97,0.00,,,0.01,Wunderground v.1.15,2013-09-08 10:08:00,
2013-09-08 06:09:00,56.0,55.2,29.76,NE,53,0.0,4.0,97,0.00,,,0.01,Wunderground v.1.15,2013-09-08 10:09:00,
2013-09-08 06:10:00,56.0,55.2,29.76,SW,219,0.0,1.0,97,0.00,,,0.01,Wunderground v.1.15,2013-09-08 10:10:00,
2013-09-08 06:12:00,56.0,55.2,29.76,SSE,161,0.0,1.0,97,0.00,,,0.01,Wunderground v.1.15,2013-09-08 10:12:00,
2013-09-08 06:13:00,56.1,55.3,29.76,SSE,161,0.0,1.0,97,0.00,,,0.01,Wunderground v.1.15,2013-09-08 10:13:00,
2013-09-08 06:14:00,56.0,55.2,29.76,SSE,161,0.0,1.0,97,0.00,,,0.01,Wunderground v.1.15,2013-09-08 10:14:00,
2013-09-08 06:15:00,56.0,55.2,29.76,SSE,161,0.0,1.0,97,0.00,,,0.01,Wunderground v.1.15,2013-09-08 10:15:00,
2013-09-08 06:16:00,56.1,55.3,29.76,South,173,1.0,1.0,97,0.00,,,0.01,Wunderground v.1.15,2013-09-08 10:16:00,
2013-09-08 06:18:00,56.1,55.3,29.76,West,267,0.0,1.0,97,0.00,,,0.01,Wunderground v.1.15,2013-09-08 10:18:00,
2013-09-08 06:19:00,56.1,55.3,29.76,West,267,0.0,1.0,97,0.00,,,0.01,Wunderground v.1.15,2013-09-08 10:19:00,
2013-09-08 06:20:00,56.1,55.3,29.76,WSW,258,0.0,0.0,97,0.00,,,0.01,Wunderground v.1.15,2013-09-08 10:20:00,
2013-09-08 06:21:00,56.1,55.3,29.76,WSW,258,0.0,0.0,97,0.00,,,0.01,Wunderground v.1.15,2013-09-08 10:21:00,
2013-09-08 06:23:00,56.1,55.0,29.76,WSW,258,0.0,1.0,96,0.00,,,0.01,Wunderground v.1.15,2013-09-08 10:23:00,
2013-09-08 06:24:00,56.1,55.0,29.76,WSW,258,0.0,1.0,96,0.00,,,0.01,Wunderground v.1.15,2013-09-08 10:24:00,
2013-09-08 06:26:00,56.1,55.0,29.76,West,261,0.0,1.0,96,0.00,,,0.01,Wunderground v.1.15,2013-09-08 10:26:00,
2013-09-08 06:27:00,56.1,55.3,29.76,SW,224,0.0,1.0,97,0.00,,,0.01,Wunderground v.1.15,2013-09-08 10:27:00,
2013-09-08 06:28:00,56.1,55.3,29.76,SW,224,0.0,1.0,97,0.00,,,0.01,Wunderground v.1.15,2013-09-08 10:28:00,
2013-09-08 06:29:00,56.1,55.3,29.76,SW,224,0.0,1.0,97,0.00,,,0.01,Wunderground v.1.15,2013-09-08 10:29:00,
2013-09-08 06:31:00,56.1,55.3,29.76,South,183,0.0,3.0,97,0.00,,,0.01,Wunderground v.1.15,2013-09-08 10:31:00,
2013-09-08 06:33:00,56.2,55.4,29.76,SW,232,0.0,3.0,97,0.00,,,0.01,Wunderground v.1.15,2013-09-08 10:33:00,
2013-09-08 06:34:00,56.2,55.4,29.76,SW,232,0.0,3.0,97,0.00,,,0.01,Wunderground v.1.15,2013-09-08 10:34:00,
2013-09-08 06:36:00,56.2,55.4,29.76,SW,217,0.0,3.0,97,0.00,,,0.01,Wunderground v.1.15,2013-09-08 10:36:00,
2013-09-08 06:37:00,56.2,55.4,29.76,SW,217,0.0,3.0,97,0.00,,,0.01,Wunderground v.1.15,2013-09-08 10:37:00,
2013-09-08 06:38:00,56.2,55.4,29.76,SW,217,0.0,3.0,97,0.00,,,0.01,Wunderground v.1.15,2013-09-08 10:38:00,
2013-09-08 06:39:00,56.2,55.4,29.76,SW,217,0.0,3.0,97,0.00,,,0.01,Wunderground v.1.15,2013-09-08 10:39:00,
2013-09-08 06:41:00,56.2,55.4,29.76,West,267,0.0,2.0,97,0.00,,,0.01,Wunderground v.1.15,2013-09-08 10:41:00,
2013-09-08 06:42:00,56.1,55.3,29.76,West,267,0.0,2.0,97,0.00,,,0.01,Wunderground v.1.15,2013-09-08 10:42:00,
2013-09-08 06:44:00,56.2,55.4,29.76,West,267,0.0,2.0,97,0.00,,,0.01,Wunderground v.1.15,2013-09-08 10:44:00,
2013-09-08 06:46:00,56.1,55.3,29.76,SW,232,0.0,2.0,97,0.00,,,0.01,Wunderground v.1.15,2013-09-08 10:46:00,
2013-09-08 06:47:00,56.1,55.3,29.76,SW,232,0.0,2.0,97,0.00,,,0.01,Wunderground v.1.15,2013-09-08 10:47:00,
2013-09-08 06:48:00,56.1,55.3,29.76,SW,232,0.0,2.0,97,0.00,,,0.01,Wunderground v.1.15,2013-09-08 10:48:00,
2013-09-08 06:49:00,56.1,55.3,29.76,SW,232,0.0,2.0,97,0.00,,,0.01,Wunderground v.1.15,2013-09-08 10:49:00,
2013-09-08 06:51:00,56.1,55.3,29.76,SW,232,0.0,1.0,97,0.00,,,0.01,Wunderground v.1.15,2013-09-08 10:51:00,
2013-09-08 06:52:00,56.1,55.3,29.76,SW,232,0.0,1.0,97,0.00,,,0.01,Wunderground v.1.15,2013-09-08 10:52:00,
2013-09-08 06:53:00,56.1,55.3,29.76,SW,232,0.0,1.0,97,0.00,,,0.01,Wunderground v.1.15,2013-09-08 10:53:00,
2013-09-08 06:54:00,56.1,55.3,29.76,SW,232,0.0,1.0,97,0.00,,,0.01,Wunderground v.1.15,2013-09-08 10:54:00,
2013-09-08 06:55:00,56.1,55.3,29.76,SW,232,0.0,1.0,97,0.00,,,0.01,Wunderground v.1.15,2013-09-08 10:55:00,
2013-09-08 06:56:00,56.1,55.3,29.76,SW,232,0.0,1.0,97,0.00,,,0.01,Wunderground v.1.15,2013-09-08 10:56:00,
2013-09-08 06:57:00,56.1,55.3,29.76,SW,232,0.0,1.0,97,0.00,,,0.01,Wunderground v.1.15,2013-09-08 10:57:00,
2013-09-08 06:59:00,56.0,55.2,29.76,SW,232,0.0,1.0,97,0.00,,,0.01,Wunderground v.1.15,2013-09-08 10:59:00,
2013-09-08 07:00:00,56.0,55.2,29.77,SW,232,0.0,0.0,97,0.00,,,0.01,Wunderground v.1.15,2013-09-08 11:00:00,
2013-09-08 07:01:00,56.0,55.2,29.76,SW,232,0.0,0.0,97,0.00,,,0.01,Wunderground v.1.15,2013-09-08 11:01:00,
2013-09-08 07:03:00,56.0,55.2,29.77,SW,232,0.0,1.0,97,0.00,,,0.01,Wunderground v.1.15,2013-09-08 11:03:00,
2013-09-08 07:05:00,56.0,55.2,29.77,SW,232,0.0,1.0,97,0.00,,,0.01,Wunderground v.1.15,2013-09-08 11:05:00,
2013-09-08 07:07:00,56.0,55.2,29.77,SW,232,0.0,1.0,97,0.00,,,0.01,Wunderground v.1.15,2013-09-08 11:07:00,
2013-09-08 07:08:00,55.9,55.1,29.77,SW,232,0.0,1.0,97,0.00,,,0.01,Wunderground v.1.15,2013-09-08 11:08:00,
2013-09-08 07:10:00,55.9,55.1,29.77,SW,232,0.0,0.0,97,0.00,,,0.01,Wunderground v.1.15,2013-09-08 11:10:00,
2013-09-08 07:11:00,55.9,55.1,29.77,SW,232,0.0,0.0,97,0.00,,,0.01,Wunderground v.1.15,2013-09-08 11:11:00,
2013-09-08 07:12:00,55.8,55.0,29.77,SW,232,0.0,0.0,97,0.00,,,0.01,Wunderground v.1.15,2013-09-08 11:12:00,
2013-09-08 07:13:00,55.8,55.0,29.77,SW,232,0.0,0.0,97,0.00,,,0.01,Wunderground v.1.15,2013-09-08 11:13:00,
2013-09-08 07:15:00,55.8,55.0,29.76,SW,232,0.0,0.0,97,0.00,,,0.01,Wunderground v.1.15,2013-09-08 11:15:00,
2013-09-08 07:16:00,55.8,55.0,29.76,SW,232,0.0,0.0,97,0.00,,,0.01,Wunderground v.1.15,2013-09-08 11:16:00,
2013-09-08 07:17:00,55.8,55.0,29.76,SW,232,0.0,0.0,97,0.00,,,0.01,Wunderground v.1.15,2013-09-08 11:17:00,
2013-09-08 07:18:00,55.8,55.0,29.76,SW,232,0.0,0.0,97,0.00,,,0.01,Wunderground v.1.15,2013-09-08 11:18:00,
2013-09-08 07:19:00,55.8,55.0,29.76,SW,232,0.0,0.0,97,0.00,,,0.01,Wunderground v.1.15,2013-09-08 11:19:00,
2013-09-08 07:21:00,55.8,55.0,29.76,SW,232,0.0,0.0,97,0.00,,,0.01,Wunderground v.1.15,2013-09-08 11:21:00,
2013-09-08 07:22:00,55.8,55.0,29.76,SW,232,0.0,2.0,97,0.00,,,0.01,Wunderground v.1.15,2013-09-08 11:22:00,
2013-09-08 07:23:00,55.8,55.0,29.76,SW,232,0.0,2.0,97,0.00,,,0.01,Wunderground v.1.15,2013-09-08 11:23:00,
2013-09-08 07:24:00,55.9,55.1,29.76,SW,232,0.0,2.0,97,0.00,,,0.01,Wunderground v.1.15,2013-09-08 11:24:00,
2013-09-08 07:26:00,55.9,55.1,29.76,SW,232,0.0,2.0,97,0.00,,,0.01,Wunderground v.1.15,2013-09-08 11:26:00,
2013-09-08 07:27:00,55.9,55.1,29.76,SW,232,0.0,2.0,97,0.00,,,0.01,Wunderground v.1.15,2013-09-08 11:27:00,
2013-09-08 07:28:00,55.9,55.1,29.76,SW,232,0.0,2.0,97,0.00,,,0.01,Wunderground v.1.15,2013-09-08 11:28:00,
2013-09-08 07:29:00,55.9,55.1,29.76,SW,232,0.0,2.0,97,0.00,,,0.01,Wunderground v.1.15,2013-09-08 11:29:00,
2013-09-08 07:31:00,55.9,55.1,29.76,SW,232,0.0,1.0,97,0.00,,,0.01,Wunderground v.1.15,2013-09-08 11:31:00,
2013-09-08 07:32:00,55.9,55.1,29.76,SW,232,0.0,1.0,97,0.00,,,0.01,Wunderground v.1.15,2013-09-08 11:32:00,
2013-09-08 07:34:00,55.9,55.1,29.76,SW,232,0.0,1.0,97,0.00,,,0.01,Wunderground v.1.15,2013-09-08 11:34:00,
2013-09-08 07:36:00,55.8,55.0,29.77,SW,232,0.0,1.0,97,0.00,,,0.01,Wunderground v.1.15,2013-09-08 11:36:00,
2013-09-08 07:37:00,55.8,55.0,29.77,SW,232,0.0,1.0,97,0.00,,,0.01,Wunderground v.1.15,2013-09-08 11:37:00,
2013-09-08 07:38:00,55.8,55.0,29.77,SW,232,0.0,1.0,97,0.00,,,0.01,Wunderground v.1.15,2013-09-08 11:38:00,
2013-09-08 07:39:00,55.8,55.0,29.77,West,281,0.0,4.0,97,0.00,,,0.01,Wunderground v.1.15,2013-09-08 11:39:00,
2013-09-08 07:40:00,55.9,55.1,29.77,West,281,0.0,0.0,97,0.00,,,0.01,Wunderground v.1.15,2013-09-08 11:40:00,
2013-09-08 07:41:00,55.9,55.1,29.76,West,281,0.0,0.0,97,0.00,,,0.01,Wunderground v.1.15,2013-09-08 11:41:00,
2013-09-08 07:43:00,55.9,55.1,29.76,SSE,150,0.0,4.0,97,0.00,,,0.01,Wunderground v.1.15,2013-09-08 11:43:00,
2013-09-08 07:44:00,55.9,55.3,29.76,SE,139,0.0,4.0,98,0.00,,,0.01,Wunderground v.1.15,2013-09-08 11:44:00,
2013-09-08 07:45:00,55.9,55.3,29.76,SE,139,0.0,4.0,98,0.00,,,0.01,Wunderground v.1.15,2013-09-08 11:45:00,
2013-09-08 07:46:00,55.9,55.3,29.76,SE,139,0.0,4.0,98,0.00,,,0.01,Wunderground v.1.15,2013-09-08 11:46:00,
2013-09-08 07:48:00,55.9,55.1,29.76,SE,139,0.0,4.0,97,0.00,,,0.01,Wunderground v.1.15,2013-09-08 11:48:00,
2013-09-08 07:50:00,55.9,55.1,29.76,SE,139,0.0,0.0,97,0.00,,,0.01,Wunderground v.1.15,2013-09-08 11:50:00,
2013-09-08 07:51:00,55.9,55.1,29.76,SE,139,0.0,1.0,97,0.00,,,0.01,Wunderground v.1.15,2013-09-08 11:51:00,
2013-09-08 07:53:00,55.9,55.1,29.76,SE,139,0.0,1.0,97,0.00,,,0.01,Wunderground v.1.15,2013-09-08 11:53:00,
2013-09-08 07:55:00,55.9,55.1,29.76,SE,139,0.0,1.0,97,0.00,,,0.01,Wunderground v.1.15,2013-09-08 11:55:00,
2013-09-08 07:56:00,55.9,55.3,29.76,SE,139,0.0,1.0,98,0.00,,,0.01,Wunderground v.1.15,2013-09-08 11:56:00,
2013-09-08 07:57:00,55.9,55.3,29.76,SE,139,0.0,1.0,98,0.00,,,0.01,Wunderground v.1.15,2013-09-08 11:57:00,
2013-09-08 07:58:00,55.9,55.3,29.76,SE,139,0.0,1.0,98,0.00,,,0.01,Wunderground v.1.15,2013-09-08 11:58:00,
2013-09-08 08:00:00,55.9,55.3,29.75,SE,144,0.0,0.0,98,0.00,,,0.01,Wunderground v.1.15,2013-09-08 12:00:00,
2013-09-08 08:01:00,55.9,55.3,29.76,SE,144,0.0,0.0,98,0.00,,,0.01,Wunderground v.1.15,2013-09-08 12:01:00,
2013-09-08 08:02:00,55.9,55.3,29.75,SE,144,0.0,0.0,98,0.00,,,0.01,Wunderground v.1.15,2013-09-08 12:02:00,
2013-09-08 08:04:00,55.9,55.3,29.75,SE,144,0.0,2.0,98,0.00,,,0.01,Wunderground v.1.15,2013-09-08 12:04:00,
2013-09-08 08:05:00,55.9,55.3,29.75,SE,144,0.0,2.0,98,0.00,,,0.01,Wunderground v.1.15,2013-09-08 12:05:00,
2013-09-08 08:06:00,55.9,55.3,29.75,SE,144,0.0,2.0,98,0.00,,,0.01,Wunderground v.1.15,2013-09-08 12:06:00,
2013-09-08 08:07:00,55.9,55.3,29.76,SE,144,0.0,2.0,98,0.00,,,0.01,Wunderground v.1.15,2013-09-08 12:07:00,
2013-09-08 08:08:00,55.9,55.3,29.76,SE,144,0.0,2.0,98,0.00,,,0.01,Wunderground v.1.15,2013-09-08 12:08:00,
2013-09-08 08:09:00,55.9,55.3,29.76,SE,144,1.0,4.0,98,0.00,,,0.01,Wunderground v.1.15,2013-09-08 12:09:00,
2013-09-08 08:10:00,55.9,55.3,29.76,SE,144,0.0,0.0,98,0.00,,,0.01,Wunderground v.1.15,2013-09-08 12:10:00,
2013-09-08 08:12:00,55.9,55.3,29.76,West,271,0.0,2.0,98,0.00,,,0.01,Wunderground v.1.15,2013-09-08 12:12:00,
2013-09-08 08:13:00,55.9,55.3,29.76,West,271,0.0,2.0,98,0.00,,,0.01,Wunderground v.1.15,2013-09-08 12:13:00,
2013-09-08 08:14:00,55.9,55.3,29.76,West,278,0.0,2.0,98,0.00,,,0.01,Wunderground v.1.15,2013-09-08 12:14:00,
2013-09-08 08:15:00,55.9,55.3,29.76,WNW,292,0.0,2.0,98,0.00,,,0.01,Wunderground v.1.15,2013-09-08 12:15:00,
2013-09-08 08:17:00,55.9,55.3,29.76,WSW,258,1.0,2.0,98,0.00,,,0.01,Wunderground v.1.15,2013-09-08 12:17:00,
2013-09-08 08:18:00,55.9,55.3,29.76,WSW,254,0.0,2.0,98,0.00,,,0.01,Wunderground v.1.15,2013-09-08 12:18:00,
2013-09-08 08:19:00,55.9,55.3,29.76,WSW,254,0.0,2.0,98,0.00,,,0.01,Wunderground v.1.15,2013-09-08 12:19:00,
2013-09-08 08:20:00,55.8,55.2,29.76,WSW,254,0.0,0.0,98,0.00,,,0.01,Wunderground v.1.15,2013-09-08 12:20:00,
2013-09-08 08:23:00,55.9,55.3,29.76,West,259,0.0,6.0,98,0.00,,,0.01,Wunderground v.1.15,2013-09-08 12:23:00,
2013-09-08 08:24:00,55.8,55.2,29.76,WSW,258,0.0,6.0,98,0.00,,,0.01,Wunderground v.1.15,2013-09-08 12:24:00,
2013-09-08 08:25:00,55.8,55.2,29.76,WSW,258,0.0,6.0,98,0.00,,,0.01,Wunderground v.1.15,2013-09-08 12:25:00,
2013-09-08 08:28:00,56.0,55.4,29.76,ESE,114,2.0,12.0,98,0.00,,,0.01,Wunderground v.1.15,2013-09-08 12:28:00,
2013-09-08 08:29:00,56.0,55.4,29.76,NW,313,7.0,12.0,98,0.00,,,0.01,Wunderground v.1.15,2013-09-08 12:29:00,
2013-09-08 08:30:00,56.0,55.4,29.76,West,280,4.0,4.0,98,0.00,,,0.01,Wunderground v.1.15,2013-09-08 12:30:00,
2013-09-08 08:34:00,55.7,54.9,29.77,WNW,299,9.0,17.0,97,0.00,,,0.01,Wunderground v.1.15,2013-09-08 12:34:00,
2013-09-08 08:35:00,55.5,54.7,29.77,NW,312,13.0,17.0,97,0.00,,,0.01,Wunderground v.1.15,2013-09-08 12:35:00,
2013-09-08 08:39:00,54.8,53.7,29.77,NW,319,0.0,17.0,96,0.00,,,0.01,Wunderground v.1.15,2013-09-08 12:39:00,
2013-09-08 08:40:00,54.7,53.6,29.77,WNW,293,4.0,6.0,96,0.00,,,0.01,Wunderground v.1.15,2013-09-08 12:40:00,
2013-09-08 08:41:00,54.6,53.5,29.77,West,259,0.0,6.0,96,0.00,,,0.01,Wunderground v.1.15,2013-09-08 12:41:00,
2013-09-08 08:42:00,54.5,53.4,29.77,SW,236,1.0,13.0,96,0.00,,,0.01,Wunderground v.1.15,2013-09-08 12:42:00,
2013-09-08 08:44:00,54.2,53.1,29.77,ESE,109,4.0,13.0,96,0.00,,,0.01,Wunderground v.1.15,2013-09-08 12:44:00,
2013-09-08 08:46:00,53.9,52.8,29.77,North,355,5.0,13.0,96,0.00,,,0.01,Wunderground v.1.15,2013-09-08 12:46:00,
2013-09-08 08:47:00,53.8,52.7,29.77,WNW,300,5.0,13.0,96,0.00,,,0.01,Wunderground v.1.15,2013-09-08 12:47:00,
2013-09-08 08:48:00,53.7,52.6,29.78,NW,317,0.0,13.0,96,0.00,,,0.01,Wunderground v.1.15,2013-09-08 12:48:00,
2013-09-08 08:49:00,53.6,52.5,29.78,NNE,32,4.0,13.0,96,0.00,,,0.01,Wunderground v.1.15,2013-09-08 12:49:00,
2013-09-08 08:51:00,53.3,52.2,29.78,ENE,72,4.0,9.0,96,0.00,,,0.01,Wunderground v.1.15,2013-09-08 12:51:00,
2013-09-08 08:52:00,53.3,52.2,29.79,NNE,22,4.0,9.0,96,0.00,,,0.01,Wunderground v.1.15,2013-09-08 12:52:00,
2013-09-08 08:53:00,53.2,52.1,29.78,NW,307,8.0,13.0,96,0.00,,,0.01,Wunderground v.1.15,2013-09-08 12:53:00,
2013-09-08 08:54:00,53.0,51.6,29.78,North,355,1.0,13.0,95,0.00,,,0.01,Wunderground v.1.15,2013-09-08 12:54:00,
2013-09-08 08:56:00,52.8,51.4,29.78,NNW,336,3.0,13.0,95,0.00,,,0.01,Wunderground v.1.15,2013-09-08 12:56:00,
2013-09-08 08:57:00,52.7,51.6,29.78,West,263,1.0,13.0,96,0.00,,,0.01,Wunderground v.1.15,2013-09-08 12:57:00,
2013-09-08 08:58:00,52.7,51.6,29.78,SSW,203,6.0,13.0,96,0.00,,,0.01,Wunderground v.1.15,2013-09-08 12:58:00,
2013-09-08 09:00:00,52.5,51.1,29.78,NW,325,5.0,9.0,95,0.00,,,0.01,Wunderground v.1.15,2013-09-08 13:00:00,
2013-09-08 09:01:00,52.4,51.0,29.78,NNE,22,2.0,18.0,95,0.00,,,0.01,Wunderground v.1.15,2013-09-08 13:01:00,
2013-09-08 09:02:00,52.3,50.9,29.78,NW,325,1.0,18.0,95,0.00,,,0.01,Wunderground v.1.15,2013-09-08 13:02:00,
2013-09-08 09:03:00,52.3,51.2,29.78,ENE,60,5.0,18.0,96,0.00,,,0.01,Wunderground v.1.15,2013-09-08 13:03:00,
2013-09-08 09:05:00,52.1,50.7,29.78,North,360,1.0,26.0,95,0.00,,,0.01,Wunderground v.1.15,2013-09-08 13:05:00,
2013-09-08 09:06:00,52.0,50.6,29.79,ESE,109,6.0,26.0,95,0.00,,,0.01,Wunderground v.1.15,2013-09-08 13:06:00,
2013-09-08 09:07:00,52.0,50.6,29.78,NW,309,5.0,26.0,95,0.00,,,0.01,Wunderground v.1.15,2013-09-08 13:07:00,
2013-09-08 09:08:00,51.9,50.5,29.78,SSW,193,0.0,26.0,95,0.00,,,0.01,Wunderground v.1.15,2013-09-08 13:08:00,
2013-09-08 09:09:00,51.9,50.5,29.79,WNW,299,8.0,26.0,95,0.00,,,0.01,Wunderground v.1.15,2013-09-08 13:09:00,
2013-09-08 09:10:00,51.8,50.4,29.79,West,261,4.0,10.0,95,0.00,,,0.01,Wunderground v.1.15,2013-09-08 13:10:00,
2013-09-08 09:11:00,51.7,50.3,29.79,North,355,2.0,10.0,95,0.00,,,0.01,Wunderground v.1.15,2013-09-08 13:11:00,
2013-09-08 09:12:00,51.6,50.2,29.79,NE,49,6.0,11.0,95,0.00,,,0.01,Wunderground v.1.15,2013-09-08 13:12:00,
2013-09-08 09:13:00,51.6,50.2,29.79,North,360,3.0,11.0,95,0.00,,,0.01,Wunderground v.1.15,2013-09-08 13:13:00,
2013-09-08 09:14:00,51.6,50.2,29.79,North,10,0.0,11.0,95,0.00,,,0.01,Wunderground v.1.15,2013-09-08 13:14:00,
2013-09-08 09:15:00,51.6,50.2,29.79,WSW,247,3.0,11.0,95,0.00,,,0.01,Wunderground v.1.15,2013-09-08 13:15:00,
2013-09-08 09:17:00,51.5,50.1,29.79,North,355,1.0,11.0,95,0.00,,,0.01,Wunderground v.1.15,2013-09-08 13:17:00,
2013-09-08 09:18:00,51.5,50.1,29.79,SE,140,5.0,11.0,95,0.00,,,0.01,Wunderground v.1.15,2013-09-08 13:18:00,
2013-09-08 09:19:00,51.4,50.0,29.79,NNE,17,1.0,11.0,95,0.00,,,0.01,Wunderground v.1.15,2013-09-08 13:19:00,
2013-09-08 09:20:00,51.4,50.0,29.79,SW,236,3.0,5.0,95,0.00,,,0.01,Wunderground v.1.15,2013-09-08 13:20:00,
2013-09-08 09:21:00,51.4,50.0,29.79,NNW,331,1.0,7.0,95,0.00,,,0.01,Wunderground v.1.15,2013-09-08 13:21:00,
2013-09-08 09:22:00,51.4,50.0,29.79,ENE,63,6.0,9.0,95,0.00,,,0.01,Wunderground v.1.15,2013-09-08 13:22:00,
2013-09-08 09:24:00,51.5,50.1,29.79,NNE,29,3.0,9.0,95,0.00,,,0.01,Wunderground v.1.15,2013-09-08 13:24:00,
2013-09-08 09:25:00,51.5,50.4,29.79,NW,306,5.0,9.0,96,0.00,,,0.01,Wunderground v.1.15,2013-09-08 13:25:00,
2013-09-08 09:26:00,51.6,50.5,29.79,NNW,333,1.0,9.0,96,0.00,,,0.01,Wunderground v.1.15,2013-09-08 13:26:00,
2013-09-08 09:27:00,51.7,50.3,29.79,NNW,334,0.0,9.0,95,0.00,,,0.01,Wunderground v.1.15,2013-09-08 13:27:00,
2013-09-08 09:29:00,51.7,50.0,29.79,WSW,249,5.0,9.0,94,0.00,,,0.01,Wunderground v.1.15,2013-09-08 13:29:00,
2013-09-08 09:30:00,51.7,50.0,29.79,NE,37,5.0,5.0,94,0.00,,,0.01,Wunderground v.1.15,2013-09-08 13:30:00,
2013-09-08 09:31:00,51.7,50.0,29.79,SSW,212,2.0,5.0,94,0.00,,,0.01,Wunderground v.1.15,2013-09-08 13:31:00,
2013-09-08 09:32:00,51.6,49.9,29.79,NW,324,8.0,8.0,94,0.00,,,0.01,Wunderground v.1.15,2013-09-08 13:32:00,
2013-09-08 09:33:00,51.6,49.9,29.79,SW,233,2.0,8.0,94,0.00,,,0.01,Wunderground v.1.15,2013-09-08 13:33:00,
2013-09-08 09:35:00,51.5,49.5,29.79,NW,306,3.0,10.0,93,0.00,,,0.01,Wunderground v.1.15,2013-09-08 13:35:00,
2013-09-08 09:36:00,51.5,49.5,29.79,NW,315,11.0,12.0,93,0.00,,,0.01,Wunderground v.1.15,2013-09-08 13:36:00,
2013-09-08 09:38:00,51.4,49.4,29.80,North,355,11.0,16.0,93,0.00,,,0.01,Wunderground v.1.15,2013-09-08 13:38:00,
2013-09-08 09:40:00,51.4,49.4,29.79,WNW,286,6.0,8.0,93,0.00,,,0.01,Wunderground v.1.15,2013-09-08 13:40:00,
2013-09-08 09:41:00,51.4,49.4,29.80,NNE,19,5.0,9.0,93,0.00,,,0.01,Wunderground v.1.15,2013-09-08 13:41:00,
2013-09-08 09:42:00,51.4,49.2,29.80,NNW,341,5.0,9.0,92,0.00,,,0.01,Wunderground v.1.15,2013-09-08 13:42:00,
2013-09-08 09:43:00,51.3,49.1,29.80,NNE,16,1.0,12.0,92,0.00,,,0.01,Wunderground v.1.15,2013-09-08 13:43:00,
2013-09-08 09:44:00,51.3,49.1,29.80,ESE,119,1.0,12.0,92,0.00,,,0.01,Wunderground v.1.15,2013-09-08 13:44:00,
2013-09-08 09:45:00,51.3,49.1,29.80,East,83,0.0,12.0,92,0.00,,,0.01,Wunderground v.1.15,2013-09-08 13:45:00,
2013-09-08 09:47:00,51.4,49.4,29.80,NNE,31,2.0,12.0,93,0.00,,,0.01,Wunderground v.1.15,2013-09-08 13:47:00,
2013-09-08 09:48:00,51.4,49.2,29.80,SW,218,0.0,12.0,92,0.00,,,0.01,Wunderground v.1.15,2013-09-08 13:48:00,
2013-09-08 09:50:00,51.4,48.9,29.80,North,355,2.0,2.0,91,0.00,,,0.01,Wunderground v.1.15,2013-09-08 13:50:00,
2013-09-08 09:52:00,51.5,49.3,29.80,WSW,258,4.0,7.0,92,0.00,,,0.01,Wunderground v.1.15,2013-09-08 13:52:00,
2013-09-08 09:54:00,51.6,49.1,29.80,NW,308,6.0,7.0,91,0.00,,,0.01,Wunderground v.1.15,2013-09-08 13:54:00,
2013-09-08 09:55:00,51.7,49.2,29.80,NNW,333,0.0,7.0,91,0.00,,,0.01,Wunderground v.1.15,2013-09-08 13:55:00,
2013-09-08 09:57:00,51.8,49.0,29.80,NW,310,3.0,7.0,90,0.00,,,0.01,Wunderground v.1.15,2013-09-08 13:57:00,
2013-09-08 09:59:00,51.9,49.1,29.80,SSW,192,4.0,7.0,90,0.00,,,0.01,Wunderground v.1.15,2013-09-08 13:59:00,
2013-09-08 10:00:00,52.1,49.0,29.80,North,350,4.0,4.0,89,0.00,,,0.01,Wunderground v.1.15,2013-09-08 14:00:00,
2013-09-08 10:02:00,52.2,49.4,29.81,ESE,117,11.0,11.0,90,0.00,,,0.01,Wunderground v.1.15,2013-09-08 14:02:00,
2013-09-08 10:03:00,52.3,48.9,29.80,NE,47,8.0,11.0,88,0.00,,,0.01,Wunderground v.1.15,2013-09-08 14:03:00,
2013-09-08 10:04:00,52.3,48.5,29.80,SW,233,5.0,21.0,87,0.00,,,0.01,Wunderground v.1.15,2013-09-08 14:04:00,
2013-09-08 10:06:00,52.4,48.6,29.80,WNW,294,4.0,21.0,87,0.00,,,0.01,Wunderground v.1.15,2013-09-08 14:06:00,
2013-09-08 10:07:00,52.4,48.6,29.80,NW,311,0.0,21.0,87,0.00,,,0.01,Wunderground v.1.15,2013-09-08 14:07:00,
2013-09-08 10:08:00,52.5,48.7,29.80,SSE,147,0.0,21.0,87,0.00,,,0.01,Wunderground v.1.15,2013-09-08 14:08:00,
2013-09-08 10:09:00,52.5,48.7,29.80,SSE,157,7.0,21.0,87,0.00,,,0.01,Wunderground v.1.15,2013-09-08 14:09:00,
2013-09-08 10:12:00,52.8,48.4,29.80,NNW,337,7.0,21.0,85,0.00,,,0.01,Wunderground v.1.15,2013-09-08 14:12:00,
2013-09-08 10:13:00,53.0,48.6,29.81,ESE,110,2.0,21.0,85,0.00,,,0.01,Wunderground v.1.15,2013-09-08 14:13:00,
2013-09-08 10:14:00,53.1,49.0,29.80,North,9,6.0,21.0,86,0.00,,,0.01,Wunderground v.1.15,2013-09-08 14:14:00,
2013-09-08 10:17:00,53.5,48.5,29.81,NNW,338,12.0,21.0,83,0.00,,,0.01,Wunderground v.1.15,2013-09-08 14:17:00,
2013-09-08 10:18:00,53.5,48.5,29.81,West,273,5.0,21.0,83,0.00,,,0.01,Wunderground v.1.15,2013-09-08 14:18:00,
2013-09-08 10:19:00,53.6,48.6,29.81,ESE,109,7.0,21.0,83,0.00,,,0.01,Wunderground v.1.15,2013-09-08 14:19:00,
2013-09-08 10:22:00,53.8,48.1,29.81,NW,325,4.0,14.0,81,0.00,,,0.01,Wunderground v.1.15,2013-09-08 14:22:00,
2013-09-08 10:23:00,53.8,48.1,29.81,South,190,4.0,14.0,81,0.00,,,0.01,Wunderground v.1.15,2013-09-08 14:23:00,
2013-09-08 10:24:00,53.9,48.2,29.80,North,355,14.0,16.0,81,0.00,,,0.01,Wunderground v.1.15,2013-09-08 14:24:00,
2013-09-08 10:25:00,53.9,48.2,29.80,North,11,5.0,16.0,81,0.00,,,0.01,Wunderground v.1.15,2013-09-08 14:25:00,
2013-09-08 10:27:00,54.0,48.6,29.81,WSW,258,5.0,16.0,82,0.00,,,0.01,Wunderground v.1.15,2013-09-08 14:27:00,
2013-09-08 10:29:00,53.8,48.1,29.81,NW,321,2.0,16.0,81,0.00,,,0.01,Wunderground v.1.15,2013-09-08 14:29:00,
2013-09-08 10:30:00,53.7,48.0,29.80,West,281,7.0,8.0,81,0.00,,,0.01,Wunderground v.1.15,2013-09-08 14:30:00,
2013-09-08 10:31:00,53.7,48.0,29.80,WSW,238,0.0,8.0,81,0.00,,,0.01,Wunderground v.1.15,2013-09-08 14:31:00,
2013-09-08 10:32:00,53.7,48.3,29.81,South,183,0.0,8.0,82,0.00,,,0.01,Wunderground v.1.15,2013-09-08 14:32:00,
2013-09-08 10:34:00,53.7,48.7,29.81,West,261,3.0,12.0,83,0.00,,,0.01,Wunderground v.1.15,2013-09-08 14:34:00,
2013-09-08 10:35:00,53.7,48.7,29.81,SSE,168,8.0,12.0,83,0.00,,,0.01,Wunderground v.1.15,2013-09-08 14:35:00,
2013-09-08 10:36:00,53.6,48.2,29.80,SW,215,11.0,12.0,82,0.00,,,0.01,Wunderground v.1.15,2013-09-08 14:36:00,
2013-09-08 10:37:00,53.6,48.2,29.81,WNW,285,2.0,13.0,82,0.00,,,0.01,Wunderground v.1.15,2013-09-08 14:37:00,
2013-09-08 10:39:00,53.7,48.3,29.81,WNW,290,1.0,13.0,82,0.00,,,0.01,Wunderground v.1.15,2013-09-08 14:39:00,
2013-09-08 10:40:00,53.8,48.4,29.81,WSW,238,6.0,8.0,82,0.00,,,0.01,Wunderground v.1.15,2013-09-08 14:40:00,
2013-09-08 10:41:00,53.9,48.5,29.80,NNW,347,5.0,8.0,82,0.00,,,0.01,Wunderground v.1.15,2013-09-08 14:41:00,
2013-09-08 10:42:00,54.1,48.7,29.80,NNW,327,4.0,8.0,82,0.00,,,0.01,Wunderground v.1.15,2013-09-08 14:42:00,
2013-09-08 10:44:00,54.3,48.6,29.81,West,269,7.0,10.0,81,0.00,,,0.01,Wunderground v.1.15,2013-09-08 14:44:00,
2013-09-08 10:45:00,54.5,49.1,29.80,SSE,150,6.0,10.0,82,0.00,,,0.01,Wunderground v.1.15,2013-09-08 14:45:00,
2013-09-08 10:47:00,54.6,48.6,29.80,South,186,1.0,12.0,80,0.00,,,0.01,Wunderground v.1.15,2013-09-08 14:47:00,
2013-09-08 10:48:00,54.7,48.3,29.80,South,184,4.0,12.0,79,0.00,,,0.01,Wunderground v.1.15,2013-09-08 14:48:00,
2013-09-08 10:49:00,54.8,48.7,29.81,SSW,203,1.0,12.0,80,0.00,,,0.01,Wunderground v.1.15,2013-09-08 14:49:00,
2013-09-08 10:51:00,55.1,49.0,29.81,NNW,329,4.0,11.0,80,0.00,,,0.01,Wunderground v.1.15,2013-09-08 14:51:00,
2013-09-08 10:52:00,55.2,48.8,29.81,WSW,254,0.0,11.0,79,0.00,,,0.01,Wunderground v.1.15,2013-09-08 14:52:00,
2013-09-08 10:53:00,55.3,48.6,29.80,SSW,209,0.0,11.0,78,0.00,,,0.01,Wunderground v.1.15,2013-09-08 14:53:00,
2013-09-08 10:54:00,55.1,47.7,29.80,SW,236,5.0,14.0,76,0.00,,,0.01,Wunderground v.1.15,2013-09-08 14:54:00,
2013-09-08 10:56:00,55.1,47.7,29.81,NNE,12,7.0,14.0,76,0.00,,,0.01,Wunderground v.1.15,2013-09-08 14:56:00,
2013-09-08 10:57:00,55.1,48.0,29.82,West,279,12.0,14.0,77,0.00,,,0.01,Wunderground v.1.15,2013-09-08 14:57:00,
2013-09-08 10:58:00,55.1,47.7,29.81,North,350,5.0,14.0,76,0.00,,,0.01,Wunderground v.1.15,2013-09-08 14:58:00,
2013-09-08 10:59:00,55.1,47.7,29.81,North,350,5.0,14.0,76,0.00,,,0.01,Wunderground v.1.15,2013-09-08 14:59:00,
2013-09-08 11:01:00,55.2,47.8,29.81,NE,34,6.0,15.0,76,0.00,,,0.01,Wunderground v.1.15,2013-09-08 15:01:00,
2013-09-08 11:02:00,55.2,48.5,29.81,West,267,2.0,15.0,78,0.00,,,0.01,Wunderground v.1.15,2013-09-08 15:02:00,
2013-09-08 11:03:00,55.2,48.5,29.81,WSW,238,7.0,15.0,78,0.00,,,0.01,Wunderground v.1.15,2013-09-08 15:03:00,
2013-09-08 11:04:00,55.2,48.5,29.81,WNW,284,4.0,15.0,78,0.00,,,0.01,Wunderground v.1.15,2013-09-08 15:04:00,
2013-09-08 11:06:00,55.2,47.8,29.81,South,173,5.0,17.0,76,0.00,,,0.01,Wunderground v.1.15,2013-09-08 15:06:00,
2013-09-08 11:08:00,55.0,47.6,29.81,West,268,13.0,17.0,76,0.00,,,0.01,Wunderground v.1.15,2013-09-08 15:08:00,
2013-09-08 11:09:00,55.0,47.6,29.81,SE,128,1.0,17.0,76,0.00,,,0.01,Wunderground v.1.15,2013-09-08 15:09:00,
2013-09-08 11:10:00,55.0,47.6,29.81,SSE,158,4.0,6.0,76,0.00,,,0.01,Wunderground v.1.15,2013-09-08 15:10:00,
2013-09-08 11:11:00,55.0,47.6,29.81,WSW,240,1.0,14.0,76,0.00,,,0.01,Wunderground v.1.15,2013-09-08 15:11:00,
2013-09-08 11:13:00,55.2,47.8,29.81,WNW,302,6.0,14.0,76,0.00,,,0.01,Wunderground v.1.15,2013-09-08 15:13:00,
2013-09-08 11:14:00,55.1,47.3,29.82,SE,146,5.0,18.0,75,0.00,,,0.01,Wunderground v.1.15,2013-09-08 15:14:00,
2013-09-08 11:15:00,55.1,47.3,29.82,West,281,4.0,18.0,75,0.00,,,0.01,Wunderground v.1.15,2013-09-08 15:15:00,
2013-09-08 11:16:00,55.1,47.3,29.82,NNE,12,0.0,18.0,75,0.00,,,0.01,Wunderground v.1.15,2013-09-08 15:16:00,
2013-09-08 11:18:00,55.2,47.1,29.82,West,281,5.0,18.0,74,0.00,,,0.01,Wunderground v.1.15,2013-09-08 15:18:00,
2013-09-08 11:19:00,55.2,46.7,29.82,North,350,14.0,18.0,73,0.00,,,0.01,Wunderground v.1.15,2013-09-08 15:19:00,
2013-09-08 11:21:00,55.2,46.3,29.82,NE,43,7.0,15.0,72,0.00,,,0.01,Wunderground v.1.15,2013-09-08 15:21:00,
2013-09-08 11:23:00,55.1,46.6,29.82,WSW,237,4.0,15.0,73,0.00,,,0.01,Wunderground v.1.15,2013-09-08 15:23:00,
2013-09-08 11:25:00,55.0,46.9,29.82,West,263,9.0,15.0,74,0.00,,,0.01,Wunderground v.1.15,2013-09-08 15:25:00,
2013-09-08 11:26:00,54.8,47.0,29.82,ESE,123,0.0,15.0,75,0.00,,,0.01,Wunderground v.1.15,2013-09-08 15:26:00,
2013-09-08 11:27:00,54.7,46.6,29.82,NNE,25,2.0,15.0,74,0.00,,,0.01,Wunderground v.1.15,2013-09-08 15:27:00,
2013-09-08 11:28:00,54.6,46.5,29.82,SW,217,2.0,15.0,74,0.00,,,0.01,Wunderground v.1.15,2013-09-08 15:28:00,
2013-09-08 11:30:00,54.5,46.4,29.83,WNW,289,7.0,9.0,74,0.00,,,0.01,Wunderground v.1.15,2013-09-08 15:30:00,
2013-09-08 11:31:00,54.3,45.8,29.82,NW,308,5.0,9.0,73,0.00,,,0.01,Wunderground v.1.15,2013-09-08 15:31:00,
2013-09-08 11:32:00,54.3,46.5,29.83,SSE,167,12.0,12.0,75,0.00,,,0.01,Wunderground v.1.15,2013-09-08 15:32:00,
2013-09-08 11:33:00,54.4,46.6,29.83,WNW,285,4.0,12.0,75,0.00,,,0.01,Wunderground v.1.15,2013-09-08 15:33:00,
2013-09-08 11:35:00,54.6,47.2,29.83,NW,323,9.0,16.0,76,0.00,,,0.01,Wunderground v.1.15,2013-09-08 15:35:00,
2013-09-08 11:36:00,55.0,46.1,29.84,NW,315,1.0,16.0,72,0.00,,,0.01,Wunderground v.1.15,2013-09-08 15:36:00,
2013-09-08 11:37:00,55.1,46.2,29.84,North,355,5.0,16.0,72,0.00,,,0.01,Wunderground v.1.15,2013-09-08 15:37:00,
2013-09-08 11:38:00,55.3,46.4,29.83,East,93,7.0,16.0,72,0.00,,,0.01,Wunderground v.1.15,2013-09-08 15:38:00,
2013-09-08 11:39:00,55.5,47.3,29.83,East,92,5.0,16.0,74,0.00,,,0.01,Wunderground v.1.15,2013-09-08 15:39:00,
2013-09-08 11:40:00,55.6,46.7,29.83,ENE,70,5.0,5.0,72,0.00,,,0.01,Wunderground v.1.15,2013-09-08 15:40:00,
2013-09-08 11:42:00,55.5,45.1,29.83,NNE,30,5.0,14.0,68,0.00,,,0.01,Wunderground v.1.15,2013-09-08 15:42:00,
2013-09-08 11:43:00,55.4,45.0,29.83,NNE,24,12.0,16.0,68,0.00,,,0.01,Wunderground v.1.15,2013-09-08 15:43:00,
2013-09-08 11:44:00,55.3,44.5,29.83,NNE,22,9.0,16.0,67,0.00,,,0.01,Wunderground v.1.15,2013-09-08 15:44:00,
2013-09-08 11:45:00,54.9,44.1,29.83,NNE,15,6.0,17.0,67,0.00,,,0.01,Wunderground v.1.15,2013-09-08 15:45:00,
2013-09-08 11:47:00,54.6,44.2,29.84,WNW,301,11.0,20.0,68,0.00,,,0.01,Wunderground v.1.15,2013-09-08 15:47:00,
2013-09-08 11:48:00,54.5,44.2,29.84,NNW,329,2.0,20.0,68,0.00,,,0.01,Wunderground v.1.15,2013-09-08 15:48:00,
2013-09-08 11:49:00,54.3,44.0,29.84,NW,318,5.0,20.0,68,0.00,,,0.01,Wunderground v.1.15,2013-09-08 15:49:00,
2013-09-08 11:51:00,54.1,44.9,29.83,ESE,119,5.0,12.0,71,0.00,,,0.01,Wunderground v.1.15,2013-09-08 15:51:00,
2013-09-08 11:52:00,53.8,43.9,29.83,WSW,253,2.0,12.0,69,0.00,,,0.01,Wunderground v.1.15,2013-09-08 15:52:00,
2013-09-08 11:53:00,53.7,43.8,29.84,NW,325,8.0,14.0,69,0.00,,,0.01,Wunderground v.1.15,2013-09-08 15:53:00,
2013-09-08 11:54:00,53.6,43.7,29.84,North,5,6.0,14.0,69,0.00,,,0.01,Wunderground v.1.15,2013-09-08 15:54:00,
2013-09-08 11:56:00,53.6,43.7,29.83,NNE,19,3.0,14.0,69,0.00,,,0.01,Wunderground v.1.15,2013-09-08 15:56:00,
2013-09-08 11:58:00,54.0,45.5,29.83,South,191,5.0,14.0,73,0.00,,,0.01,Wunderground v.1.15,2013-09-08 15:58:00,
2013-09-08 11:59:00,54.2,44.2,29.83,SE,132,6.0,14.0,69,0.00,,,0.01,Wunderground v.1.15,2013-09-08 15:59:00,
2013-09-08 12:00:00,54.3,44.7,29.83,SW,227,1.0,14.0,70,0.00,,,0.01,Wunderground v.1.15,2013-09-08 16:00:00,
2013-09-08 12:01:00,54.6,45.0,29.83,NNE,32,2.0,8.0,70,0.00,,,0.01,Wunderground v.1.15,2013-09-08 16:01:00,
2013-09-08 12:03:00,54.8,45.6,29.83,WSW,250,7.0,10.0,71,0.00,,,0.01,Wunderground v.1.15,2013-09-08 16:03:00,
2013-09-08 12:04:00,55.0,45.8,29.83,WSW,239,9.0,10.0,71,0.00,,,0.01,Wunderground v.1.15,2013-09-08 16:04:00,
2013-09-08 12:05:00,55.1,45.1,29.83,NNW,342,3.0,10.0,69,0.00,,,0.01,Wunderground v.1.15,2013-09-08 16:05:00,
2013-09-08 12:06:00,55.4,45.0,29.83,NW,324,5.0,10.0,68,0.00,,,0.01,Wunderground v.1.15,2013-09-08 16:06:00,
2013-09-08 12:08:00,55.7,46.4,29.84,SE,125,6.0,18.0,71,0.00,,,0.01,Wunderground v.1.15,2013-09-08 16:08:00,
2013-09-08 12:09:00,55.8,45.4,29.85,West,268,9.0,18.0,68,0.00,,,0.01,Wunderground v.1.15,2013-09-08 16:09:00,
2013-09-08 12:10:00,55.9,45.5,29.84,NNW,336,3.0,5.0,68,0.00,,,0.01,Wunderground v.1.15,2013-09-08 16:10:00,
2013-09-08 12:12:00,55.9,45.5,29.84,ESE,113,2.0,14.0,68,0.00,,,0.01,Wunderground v.1.15,2013-09-08 16:12:00,
2013-09-08 12:13:00,56.0,45.2,29.84,NW,316,0.0,14.0,67,0.00,,,0.01,Wunderground v.1.15,2013-09-08 16:13:00,
2013-09-08 12:14:00,56.1,45.7,29.84,WSW,250,3.0,14.0,68,0.00,,,0.01,Wunderground v.1.15,2013-09-08 16:14:00,
2013-09-08 12:15:00,56.2,45.8,29.84,NE,43,3.0,14.0,68,0.00,,,0.01,Wunderground v.1.15,2013-09-08 16:15:00,
2013-09-08 12:17:00,56.3,46.3,29.84,North,360,0.0,14.0,69,0.00,,,0.01,Wunderground v.1.15,2013-09-08 16:17:00,
2013-09-08 12:18:00,56.3,45.9,29.84,North,350,4.0,14.0,68,0.00,,,0.01,Wunderground v.1.15,2013-09-08 16:18:00,
2013-09-08 12:19:00,56.3,45.9,29.84,NNW,336,8.0,14.0,68,0.00,,,0.01,Wunderground v.1.15,2013-09-08 16:19:00,
2013-09-08 12:20:00,56.3,44.7,29.84,North,9,14.0,14.0,65,0.00,,,0.01,Wunderground v.1.15,2013-09-08 16:20:00,
2013-09-08 12:22:00,56.1,44.5,29.84,NNW,338,5.0,17.0,65,0.00,,,0.01,Wunderground v.1.15,2013-09-08 16:22:00,
2013-09-08 12:23:00,56.1,44.9,29.83,WNW,292,3.0,17.0,66,0.00,,,0.01,Wunderground v.1.15,2013-09-08 16:23:00,
2013-09-08 12:24:00,56.1,44.5,29.84,South,184,8.0,17.0,65,0.00,,,0.01,Wunderground v.1.15,2013-09-08 16:24:00,
2013-09-08 12:25:00,56.1,44.5,29.83,SSW,192,6.0,17.0,65,0.00,,,0.01,Wunderground v.1.15,2013-09-08 16:25:00,
2013-09-08 12:26:00,56.0,45.6,29.84,NW,309,7.0,17.0,68,0.00,,,0.01,Wunderground v.1.15,2013-09-08 16:26:00,
2013-09-08 12:27:00,56.1,45.3,29.84,NW,325,9.0,17.0,67,0.00,,,0.01,Wunderground v.1.15,2013-09-08 16:27:00,
2013-09-08 12:28:00,56.1,45.7,29.84,NW,313,5.0,17.0,68,0.00,,,0.01,Wunderground v.1.15,2013-09-08 16:28:00,
2013-09-08 12:29:00,56.1,45.3,29.84,South,169,6.0,17.0,67,0.00,,,0.01,Wunderground v.1.15,2013-09-08 16:29:00,
2013-09-08 12:30:00,55.8,44.6,29.84,WNW,288,4.0,11.0,66,0.00,,,0.01,Wunderground v.1.15,2013-09-08 16:30:00,
2013-09-08 12:32:00,55.8,46.5,29.84,West,271,5.0,11.0,71,0.00,,,0.01,Wunderground v.1.15,2013-09-08 16:32:00,
2013-09-08 12:33:00,55.9,45.5,29.84,WNW,299,15.0,15.0,68,0.00,,,0.01,Wunderground v.1.15,2013-09-08 16:33:00,
2013-09-08 12:34:00,55.9,45.1,29.84,NNE,17,2.0,15.0,67,0.00,,,0.01,Wunderground v.1.15,2013-09-08 16:34:00,
2013-09-08 12:35:00,56.0,45.6,29.84,NNW,331,10.0,15.0,68,0.00,,,0.01,Wunderground v.1.15,2013-09-08 16:35:00,
2013-09-08 12:38:00,55.8,45.0,29.84,NNE,30,7.0,19.0,67,0.00,,,0.01,Wunderground v.1.15,2013-09-08 16:38:00,
2013-09-08 12:39:00,55.8,45.4,29.84,South,174,2.0,19.0,68,0.00,,,0.01,Wunderground v.1.15,2013-09-08 16:39:00,
2013-09-08 12:40:00,55.8,45.0,29.84,NNW,329,12.0,12.0,67,0.00,,,0.01,Wunderground v.1.15,2013-09-08 16:40:00,
2013-09-08 12:43:00,55.8,45.0,29.84,NNW,331,3.0,13.0,67,0.00,,,0.01,Wunderground v.1.15,2013-09-08 16:43:00,
2013-09-08 12:44:00,55.8,45.0,29.84,NNW,348,6.0,13.0,67,0.00,,,0.01,Wunderground v.1.15,2013-09-08 16:44:00,
2013-09-08 12:45:00,55.8,45.4,29.84,WSW,253,1.0,15.0,68,0.00,,,0.01,Wunderground v.1.15,2013-09-08 16:45:00,
2013-09-08 12:46:00,55.8,44.6,29.84,WNW,300,9.0,15.0,66,0.00,,,0.01,Wunderground v.1.15,2013-09-08 16:46:00,
2013-09-08 12:49:00,55.6,44.4,29.85,ENE,71,2.0,15.0,66,0.00,,,0.01,Wunderground v.1.15,2013-09-08 16:49:00,
2013-09-08 12:50:00,55.4,43.8,29.85,NNW,342,6.0,23.0,65,0.00,,,0.01,Wunderground v.1.15,2013-09-08 16:50:00,
2013-09-08 12:51:00,55.4,43.8,29.85,NW,312,13.0,23.0,65,0.00,,,0.01,Wunderground v.1.15,2013-09-08 16:51:00,
2013-09-08 12:54:00,55.4,44.6,29.85,ENE,76,7.0,23.0,67,0.00,,,0.01,Wunderground v.1.15,2013-09-08 16:54:00,
2013-09-08 12:55:00,55.4,44.2,29.85,WNW,297,5.0,23.0,66,0.00,,,0.01,Wunderground v.1.15,2013-09-08 16:55:00,
2013-09-08 12:56:00,55.4,44.2,29.85,NE,49,8.0,23.0,66,0.00,,,0.01,Wunderground v.1.15,2013-09-08 16:56:00,
2013-09-08 12:57:00,55.5,44.3,29.85,North,9,5.0,23.0,66,0.00,,,0.01,Wunderground v.1.15,2013-09-08 16:57:00,
2013-09-08 13:00:00,55.8,44.2,29.85,North,5,6.0,10.0,65,0.00,,,0.01,Wunderground v.1.15,2013-09-08 17:00:00,
2013-09-08 13:01:00,55.7,43.7,29.85,North,351,0.0,10.0,64,0.00,,,0.01,Wunderground v.1.15,2013-09-08 17:01:00,
2013-09-08 13:02:00,55.7,44.5,29.85,NNE,29,2.0,10.0,66,0.00,,,0.01,Wunderground v.1.15,2013-09-08 17:02:00,
2013-09-08 13:05:00,55.7,44.5,29.86,NW,321,3.0,14.0,66,0.00,,,0.01,Wunderground v.1.15,2013-09-08 17:05:00,
2013-09-08 13:06:00,55.7,43.7,29.85,North,360,11.0,14.0,64,0.00,,,0.01,Wunderground v.1.15,2013-09-08 17:06:00,
2013-09-08 13:07:00,55.7,43.3,29.85,SSW,207,8.0,14.0,63,0.00,,,0.01,Wunderground v.1.15,2013-09-08 17:07:00,
2013-09-08 13:10:00,55.6,44.0,29.85,SW,214,5.0,6.0,65,0.00,,,0.01,Wunderground v.1.15,2013-09-08 17:10:00,
2013-09-08 13:11:00,55.7,44.5,29.85,SW,221,4.0,10.0,66,0.00,,,0.01,Wunderground v.1.15,2013-09-08 17:11:00,
2013-09-08 13:13:00,56.0,44.4,29.86,SE,140,0.0,10.0,65,0.00,,,0.01,Wunderground v.1.15,2013-09-08 17:13:00,
2013-09-08 13:15:00,56.3,45.5,29.85,NW,318,1.0,10.0,67,0.00,,,0.01,Wunderground v.1.15,2013-09-08 17:15:00,
2013-09-08 13:16:00,56.4,45.6,29.85,SSE,151,12.0,12.0,67,0.00,,,0.01,Wunderground v.1.15,2013-09-08 17:16:00,
2013-09-08 13:17:00,56.5,45.3,29.85,SW,236,6.0,12.0,66,0.00,,,0.01,Wunderground v.1.15,2013-09-08 17:17:00,
2013-09-08 13:20:00,56.7,45.1,29.85,North,360,3.0,21.0,65,0.00,,,0.01,Wunderground v.1.15,2013-09-08 17:20:00,
2013-09-08 13:21:00,56.7,45.1,29.87,NNW,344,7.0,21.0,65,0.00,,,0.01,Wunderground v.1.15,2013-09-08 17:21:00,
2013-09-08 13:22:00,56.7,43.8,29.86,SSW,208,4.0,21.0,62,0.00,,,0.01,Wunderground v.1.15,2013-09-08 17:22:00,
2013-09-08 13:26:00,56.8,44.3,29.86,NW,326,3.0,21.0,63,0.00,,,0.01,Wunderground v.1.15,2013-09-08 17:26:00,
2013-09-08 13:27:00,56.8,44.7,29.86,North,11,7.0,21.0,64,0.00,,,0.01,Wunderground v.1.15,2013-09-08 17:27:00,
2013-09-08 13:31:00,56.8,44.3,29.87,West,269,3.0,12.0,63,0.00,,,0.01,Wunderground v.1.15,2013-09-08 17:31:00,
2013-09-08 13:32:00,56.8,44.3,29.86,WSW,246,3.0,12.0,63,0.00,,,0.01,Wunderground v.1.15,2013-09-08 17:32:00,
2013-09-08 13:34:00,56.7,45.1,29.87,NNW,337,1.0,13.0,65,0.00,,,0.01,Wunderground v.1.15,2013-09-08 17:34:00,
2013-09-08 13:36:00,56.4,44.4,29.87,East,91,2.0,13.0,64,0.00,,,0.01,Wunderground v.1.15,2013-09-08 17:36:00,
2013-09-08 13:37:00,56.3,44.3,29.87,NNW,340,2.0,13.0,64,0.00,,,0.01,Wunderground v.1.15,2013-09-08 17:37:00,
2013-09-08 13:40:00,56.3,44.3,29.87,North,360,9.0,10.0,64,0.00,,,0.01,Wunderground v.1.15,2013-09-08 17:40:00,
2013-09-08 13:42:00,56.2,44.2,29.86,WSW,246,0.0,10.0,64,0.00,,,0.01,Wunderground v.1.15,2013-09-08 17:42:00,
2013-09-08 13:43:00,56.4,46.0,29.86,North,9,1.0,10.0,68,0.00,,,0.01,Wunderground v.1.15,2013-09-08 17:43:00,
2013-09-08 13:47:00,56.9,45.3,29.87,North,5,3.0,10.0,65,0.00,,,0.01,Wunderground v.1.15,2013-09-08 17:47:00,
2013-09-08 13:49:00,56.8,43.9,29.87,West,263,0.0,12.0,62,0.00,,,0.01,Wunderground v.1.15,2013-09-08 17:49:00,
2013-09-08 13:52:00,56.0,43.2,29.87,West,275,5.0,13.0,62,0.00,,,0.01,Wunderground v.1.15,2013-09-08 17:52:00,
2013-09-08 13:53:00,55.8,43.8,29.87,NW,311,13.0,13.0,64,0.00,,,0.01,Wunderground v.1.15,2013-09-08 17:53:00,
2013-09-08 13:54:00,55.6,43.6,29.87,ENE,59,4.0,13.0,64,0.00,,,0.01,Wunderground v.1.15,2013-09-08 17:54:00,
2013-09-08 13:57:00,56.0,46.7,29.87,West,279,10.0,13.0,71,0.00,,,0.01,Wunderground v.1.15,2013-09-08 17:57:00,
2013-09-08 13:58:00,56.0,45.2,29.87,NW,317,6.0,13.0,67,0.00,,,0.01,Wunderground v.1.15,2013-09-08 17:58:00,
2013-09-08 13:59:00,56.0,44.4,29.87,NNW,330,12.0,13.0,65,0.00,,,0.01,Wunderground v.1.15,2013-09-08 17:59:00,
2013-09-08 14:00:00,55.9,43.9,29.87,SSW,197,2.0,8.0,64,0.00,,,0.01,Wunderground v.1.15,2013-09-08 18:00:00,
2013-09-08 14:02:00,55.8,44.6,29.87,NNE,21,6.0,9.0,66,0.00,,,0.01,Wunderground v.1.15,2013-09-08 18:02:00,
2013-09-08 14:03:00,55.8,44.6,29.87,WSW,257,5.0,9.0,66,0.00,,,0.01,Wunderground v.1.15,2013-09-08 18:03:00,
2013-09-08 14:05:00,56.0,45.2,29.87,WSW,257,1.0,9.0,67,0.00,,,0.01,Wunderground v.1.15,2013-09-08 18:05:00,
2013-09-08 14:06:00,56.2,45.0,29.87,North,11,8.0,11.0,66,0.00,,,0.01,Wunderground v.1.15,2013-09-08 18:06:00,
2013-09-08 14:07:00,56.3,43.9,29.87,NNW,331,3.0,12.0,63,0.00,,,0.01,Wunderground v.1.15,2013-09-08 18:07:00,
2013-09-08 14:08:00,56.3,45.5,29.87,NNW,330,2.0,12.0,67,0.00,,,0.01,Wunderground v.1.15,2013-09-08 18:08:00,
2013-09-08 14:10:00,56.6,45.0,29.87,WNW,293,10.0,15.0,65,0.00,,,0.01,Wunderground v.1.15,2013-09-08 18:10:00,
2013-09-08 14:12:00,56.4,43.5,29.87,NNW,334,8.0,15.0,62,0.00,,,0.01,Wunderground v.1.15,2013-09-08 18:12:00,
2013-09-08 14:13:00,56.3,43.4,29.87,NW,307,4.0,15.0,62,0.00,,,0.01,Wunderground v.1.15,2013-09-08 18:13:00,
2013-09-08 14:16:00,56.4,46.0,29.87,NNE,25,0.0,15.0,68,0.00,,,0.01,Wunderground v.1.15,2013-09-08 18:16:00,
2013-09-08 14:18:00,56.7,45.9,29.87,NW,321,0.0,15.0,67,0.00,,,0.01,Wunderground v.1.15,2013-09-08 18:18:00,
2013-09-08 14:19:00,56.9,45.3,29.87,WNW,296,3.0,15.0,65,0.00,,,0.01,Wunderground v.1.15,2013-09-08 18:19:00,
2013-09-08 14:20:00,56.9,44.0,29.87,North,360,5.0,5.0,62,0.00,,,0.01,Wunderground v.1.15,2013-09-08 18:20:00,
2013-09-08 14:23:00,57.0,44.1,29.87,SE,134,2.0,8.0,62,0.00,,,0.01,Wunderground v.1.15,2013-09-08 18:23:00,
2013-09-08 14:24:00,56.9,44.4,29.87,WSW,240,3.0,12.0,63,0.00,,,0.01,Wunderground v.1.15,2013-09-08 18:24:00,
2013-09-08 14:25:00,56.9,45.7,29.87,NNE,19,9.0,12.0,66,0.00,,,0.01,Wunderground v.1.15,2013-09-08 18:25:00,
2013-09-08 14:28:00,56.8,44.7,29.88,North,355,0.0,14.0,64,0.00,,,0.01,Wunderground v.1.15,2013-09-08 18:28:00,
2013-09-08 14:29:00,56.8,44.7,29.88,East,100,4.0,14.0,64,0.00,,,0.01,Wunderground v.1.15,2013-09-08 18:29:00,
2013-09-08 14:30:00,56.8,44.3,29.87,SW,222,0.0,5.0,63,0.00,,,0.01,Wunderground v.1.15,2013-09-08 18:30:00,
2013-09-08 14:33:00,57.1,45.4,29.87,South,184,4.0,9.0,65,0.00,,,0.01,Wunderground v.1.15,2013-09-08 18:33:00,
2013-09-08 14:34:00,57.1,45.4,29.87,South,169,11.0,11.0,65,0.00,,,0.01,Wunderground v.1.15,2013-09-08 18:34:00,
2013-09-08 14:35:00,57.3,45.2,29.87,SSE,156,4.0,11.0,64,0.00,,,0.01,Wunderground v.1.15,2013-09-08 18:35:00,
2013-09-08 14:36:00,57.3,45.2,29.87,SSE,152,5.0,11.0,64,0.00,,,0.01,Wunderground v.1.15,2013-09-08 18:36:00,
2013-09-08 14:37:00,57.3,44.0,29.87,WSW,242,2.0,14.0,61,0.00,,,0.01,Wunderground v.1.15,2013-09-08 18:37:00,
2013-09-08 14:38:00,57.2,44.3,29.87,SSW,194,5.0,14.0,62,0.00,,,0.01,Wunderground v.1.15,2013-09-08 18:38:00,
2013-09-08 14:39:00,57.2,44.3,29.87,North,355,6.0,14.0,62,0.00,,,0.01,Wunderground v.1.15,2013-09-08 18:39:00,
2013-09-08 14:40:00,57.2,44.7,29.87,West,279,6.0,9.0,63,0.00,,,0.01,Wunderground v.1.15,2013-09-08 18:40:00,
2013-09-08 14:41:00,57.2,44.7,29.87,WSW,244,0.0,9.0,63,0.00,,,0.01,Wunderground v.1.15,2013-09-08 18:41:00,
2013-09-08 14:42:00,57.3,44.8,29.87,SW,226,5.0,9.0,63,0.00,,,0.01,Wunderground v.1.15,2013-09-08 18:42:00,
2013-09-08 14:43:00,57.4,44.5,29.87,SW,223,3.0,10.0,62,0.00,,,0.01,Wunderground v.1.15,2013-09-08 18:43:00,
2013-09-08 14:45:00,57.5,45.0,29.87,SW,224,7.0,10.0,63,0.00,,,0.01,Wunderground v.1.15,2013-09-08 18:45:00,
2013-09-08 14:46:00,57.3,44.4,29.88,WSW,257,4.0,12.0,62,0.00,,,0.01,Wunderground v.1.15,2013-09-08 18:46:00,
2013-09-08 14:47:00,57.3,44.4,29.88,West,274,3.0,12.0,62,0.00,,,0.01,Wunderground v.1.15,2013-09-08 18:47:00,
2013-09-08 14:49:00,57.3,44.0,29.88,NW,310,5.0,15.0,61,0.00,,,0.01,Wunderground v.1.15,2013-09-08 18:49:00,
2013-09-08 14:50:00,57.2,44.7,29.88,SE,126,5.0,6.0,63,0.00,,,0.01,Wunderground v.1.15,2013-09-08 18:50:00,
2013-09-08 14:52:00,56.9,43.6,29.88,North,355,3.0,11.0,61,0.00,,,0.01,Wunderground v.1.15,2013-09-08 18:52:00,
2013-09-08 14:54:00,56.9,44.8,29.88,NW,325,2.0,11.0,64,0.00,,,0.01,Wunderground v.1.15,2013-09-08 18:54:00,
2013-09-08 14:55:00,57.2,46.3,29.88,NNE,22,2.0,11.0,67,0.00,,,0.01,Wunderground v.1.15,2013-09-08 18:55:00,
2013-09-08 14:57:00,57.3,44.4,29.88,South,178,9.0,12.0,62,0.00,,,0.01,Wunderground v.1.15,2013-09-08 18:57:00,
2013-09-08 14:58:00,57.4,44.9,29.88,South,186,3.0,12.0,63,0.00,,,0.01,Wunderground v.1.15,2013-09-08 18:58:00,
2013-09-08 14:59:00,57.4,45.3,29.89,WNW,299,10.0,13.0,64,0.00,,,0.01,Wunderground v.1.15,2013-09-08 18:59:00,
2013-09-08 15:00:00,57.5,44.6,29.88,WNW,300,5.0,6.0,62,0.00,,,0.01,Wunderground v.1.15,2013-09-08 19:00:00,
2013-09-08 15:02:00,57.8,45.3,29.89,NW,311,4.0,6.0,63,0.00,,,0.01,Wunderground v.1.15,2013-09-08 19:02:00,
2013-09-08 15:03:00,57.8,46.1,29.89,NE,40,7.0,13.0,65,0.00,,,0.01,Wunderground v.1.15,2013-09-08 19:03:00,
2013-09-08 15:04:00,57.9,45.4,29.89,NNW,346,9.0,13.0,63,0.00,,,0.01,Wunderground v.1.15,2013-09-08 19:04:00,
2013-09-08 15:05:00,58.0,45.9,29.89,NNE,20,10.0,18.0,64,0.00,,,0.01,Wunderground v.1.15,2013-09-08 19:05:00,
2013-09-08 15:07:00,57.8,44.4,29.89,NW,312,9.0,18.0,61,0.00,,,0.01,Wunderground v.1.15,2013-09-08 19:07:00,
2013-09-08 15:08:00,57.7,44.8,29.89,NNW,329,0.0,18.0,62,0.00,,,0.01,Wunderground v.1.15,2013-09-08 19:08:00,
2013-09-08 15:09:00,57.7,45.6,29.89,NE,38,2.0,18.0,64,0.00,,,0.01,Wunderground v.1.15,2013-09-08 19:09:00,
2013-09-08 15:10:00,57.6,43.8,29.89,SW,215,12.0,13.0,60,0.00,,,0.01,Wunderground v.1.15,2013-09-08 19:10:00,
2013-09-08 15:12:00,57.3,43.5,29.88,SSE,163,7.0,13.0,60,0.00,,,0.01,Wunderground v.1.15,2013-09-08 19:12:00,
2013-09-08 15:13:00,57.3,43.5,29.88,SSE,154,11.0,13.0,60,0.00,,,0.01,Wunderground v.1.15,2013-09-08 19:13:00,
2013-09-08 15:14:00,57.1,44.2,29.88,WSW,246,2.0,13.0,62,0.00,,,0.01,Wunderground v.1.15,2013-09-08 19:14:00,
2013-09-08 15:16:00,56.8,43.5,29.89,SW,236,0.0,13.0,61,0.00,,,0.01,Wunderground v.1.15,2013-09-08 19:16:00,
2013-09-08 15:18:00,56.8,44.3,29.89,WSW,246,1.0,13.0,63,0.00,,,0.01,Wunderground v.1.15,2013-09-08 19:18:00,
2013-09-08 15:19:00,56.9,44.8,29.89,NW,321,6.0,13.0,64,0.00,,,0.01,Wunderground v.1.15,2013-09-08 19:19:00,
2013-09-08 15:21:00,56.9,44.0,29.88,North,360,0.0,12.0,62,0.00,,,0.01,Wunderground v.1.15,2013-09-08 19:21:00,
2013-09-08 15:23:00,57.0,44.5,29.89,NW,325,4.0,12.0,63,0.00,,,0.01,Wunderground v.1.15,2013-09-08 19:23:00,
2013-09-08 15:24:00,57.0,44.5,29.89,West,272,4.0,12.0,63,0.00,,,0.01,Wunderground v.1.15,2013-09-08 19:24:00,
2013-09-08 15:26:00,57.1,45.0,29.89,North,350,6.0,12.0,64,0.00,,,0.01,Wunderground v.1.15,2013-09-08 19:26:00,
2013-09-08 15:27:00,57.1,44.2,29.89,West,262,2.0,12.0,62,0.00,,,0.01,Wunderground v.1.15,2013-09-08 19:27:00,
2013-09-08 15:28:00,57.2,44.3,29.89,SW,236,0.0,12.0,62,0.00,,,0.01,Wunderground v.1.15,2013-09-08 19:28:00,
2013-09-08 15:29:00,57.3,45.2,29.88,SE,135,0.0,12.0,64,0.00,,,0.01,Wunderground v.1.15,2013-09-08 19:29:00,
2013-09-08 15:31:00,57.4,44.5,29.88,WSW,246,2.0,9.0,62,0.00,,,0.01,Wunderground v.1.15,2013-09-08 19:31:00,
2013-09-08 15:32:00,57.3,43.5,29.88,North,9,1.0,9.0,60,0.00,,,0.01,Wunderground v.1.15,2013-09-08 19:32:00,
2013-09-08 15:33:00,57.4,45.7,29.89,NNW,338,6.0,12.0,65,0.00,,,0.01,Wunderground v.1.15,2013-09-08 19:33:00,
2013-09-08 15:34:00,57.5,44.6,29.89,North,350,5.0,12.0,62,0.00,,,0.01,Wunderground v.1.15,2013-09-08 19:34:00,
2013-09-08 15:35:00,57.6,44.2,29.89,NNW,327,4.0,12.0,61,0.00,,,0.01,Wunderground v.1.15,2013-09-08 19:35:00,
2013-09-08 15:36:00,57.6,44.2,29.89,South,178,1.0,12.0,61,0.00,,,0.01,Wunderground v.1.15,2013-09-08 19:36:00,
2013-09-08 15:38:00,57.8,44.0,29.89,NNE,24,4.0,12.0,60,0.00,,,0.01,Wunderground v.1.15,2013-09-08 19:38:00,
2013-09-08 15:39:00,57.8,44.0,29.89,NE,38,2.0,12.0,60,0.00,,,0.01,Wunderground v.1.15,2013-09-08 19:39:00,
2013-09-08 15:40:00,57.9,44.5,29.89,WNW,302,6.0,7.0,61,0.00,,,0.01,Wunderground v.1.15,2013-09-08 19:40:00,
2013-09-08 15:41:00,57.9,43.7,29.89,North,5,11.0,11.0,59,0.00,,,0.01,Wunderground v.1.15,2013-09-08 19:41:00,
2013-09-08 15:44:00,57.7,43.9,29.89,NNE,19,5.0,11.0,60,0.00,,,0.01,Wunderground v.1.15,2013-09-08 19:44:00,
2013-09-08 15:45:00,57.7,43.9,29.89,ENE,57,2.0,11.0,60,0.00,,,0.01,Wunderground v.1.15,2013-09-08 19:45:00,
2013-09-08 15:46:00,57.8,44.9,29.90,West,265,3.0,11.0,62,0.00,,,0.01,Wunderground v.1.15,2013-09-08 19:46:00,
2013-09-08 15:49:00,58.0,45.0,29.90,North,351,8.0,15.0,62,0.00,,,0.01,Wunderground v.1.15,2013-09-08 19:49:00,
2013-09-08 15:51:00,58.0,44.6,29.90,East,101,4.0,8.0,61,0.00,,,0.01,Wunderground v.1.15,2013-09-08 19:51:00,
2013-09-08 15:54:00,57.8,43.1,29.90,NW,316,5.0,11.0,58,0.00,,,0.01,Wunderground v.1.15,2013-09-08 19:54:00,
2013-09-08 15:56:00,57.4,43.2,29.89,North,11,4.0,11.0,59,0.00,,,0.01,Wunderground v.1.15,2013-09-08 19:56:00,
2013-09-08 15:57:00,57.3,43.5,29.90,NNW,336,5.0,11.0,60,0.00,,,0.01,Wunderground v.1.15,2013-09-08 19:57:00,
2013-09-08 15:59:00,57.0,42.8,29.90,East,92,0.0,14.0,59,0.00,,,0.01,Wunderground v.1.15,2013-09-08 19:59:00,
2013-09-08 16:01:00,57.0,44.1,29.90,NNW,333,9.0,9.0,62,0.00,,,0.01,Wunderground v.1.15,2013-09-08 20:01:00,
2013-09-08 16:02:00,57.1,44.2,29.91,North,355,12.0,12.0,62,0.00,,,0.01,Wunderground v.1.15,2013-09-08 20:02:00,
2013-09-08 16:04:00,57.2,43.9,29.90,West,271,2.0,15.0,61,0.00,,,0.01,Wunderground v.1.15,2013-09-08 20:04:00,
2013-09-08 16:06:00,57.3,44.4,29.90,NNE,20,4.0,15.0,62,0.00,,,0.01,Wunderground v.1.15,2013-09-08 20:06:00,
2013-09-08 16:07:00,57.3,44.4,29.91,SW,231,3.0,15.0,62,0.00,,,0.01,Wunderground v.1.15,2013-09-08 20:07:00,
2013-09-08 16:10:00,57.4,43.6,29.90,NNW,329,2.0,4.0,60,0.00,,,0.01,Wunderground v.1.15,2013-09-08 20:10:00,
2013-09-08 16:12:00,57.6,45.5,29.91,North,355,7.0,10.0,64,0.00,,,0.01,Wunderground v.1.15,2013-09-08 20:12:00,
2013-09-08 16:13:00,57.7,44.3,29.90,WNW,298,0.0,10.0,61,0.00,,,0.01,Wunderground v.1.15,2013-09-08 20:13:00,
2013-09-08 16:15:00,57.7,43.9,29.90,NNW,328,10.0,10.0,60,0.00,,,0.01,Wunderground v.1.15,2013-09-08 20:15:00,
2013-09-08 16:17:00,57.8,43.1,29.91,South,182,0.0,10.0,58,0.00,,,0.01,Wunderground v.1.15,2013-09-08 20:17:00,
2013-09-08 16:18:00,57.8,43.6,29.90,NNE,17,6.0,10.0,59,0.00,,,0.01,Wunderground v.1.15,2013-09-08 20:18:00,
2013-09-08 16:19:00,57.7,43.5,29.90,NNW,330,9.0,10.0,59,0.00,,,0.01,Wunderground v.1.15,2013-09-08 20:19:00,
2013-09-08 16:20:00,57.7,43.5,29.91,NE,44,4.0,10.0,59,0.00,,,0.01,Wunderground v.1.15,2013-09-08 20:20:00,
2013-09-08 16:21:00,57.7,43.5,29.91,SW,225,1.0,10.0,59,0.00,,,0.01,Wunderground v.1.15,2013-09-08 20:21:00,
2013-09-08 16:22:00,57.7,43.5,29.91,NW,322,7.0,10.0,59,0.00,,,0.01,Wunderground v.1.15,2013-09-08 20:22:00,
2013-09-08 16:24:00,57.5,42.8,29.91,ESE,115,0.0,11.0,58,0.00,,,0.01,Wunderground v.1.15,2013-09-08 20:24:00,
2013-09-08 16:25:00,57.4,42.7,29.91,SSW,209,0.0,11.0,58,0.00,,,0.01,Wunderground v.1.15,2013-09-08 20:25:00,
2013-09-08 16:27:00,57.4,43.6,29.91,SSW,202,8.0,11.0,60,0.00,,,0.01,Wunderground v.1.15,2013-09-08 20:27:00,
2013-09-08 16:28:00,57.2,42.5,29.91,WNW,294,6.0,11.0,58,0.00,,,0.01,Wunderground v.1.15,2013-09-08 20:28:00,
2013-09-08 16:30:00,57.0,42.4,29.90,SSE,168,6.0,6.0,58,0.00,,,0.01,Wunderground v.1.15,2013-09-08 20:30:00,
2013-09-08 16:31:00,56.9,43.2,29.90,NNE,20,3.0,6.0,60,0.00,,,0.01,Wunderground v.1.15,2013-09-08 20:31:00,
2013-09-08 16:32:00,56.9,43.2,29.90,SW,236,1.0,6.0,60,0.00,,,0.01,Wunderground v.1.15,2013-09-08 20:32:00,
2013-09-08 16:35:00,56.9,42.7,29.91,SW,219,4.0,9.0,59,0.00,,,0.01,Wunderground v.1.15,2013-09-08 20:35:00,
2013-09-08 16:36:00,56.9,42.7,29.90,West,261,8.0,9.0,59,0.00,,,0.01,Wunderground v.1.15,2013-09-08 20:36:00,
2013-09-08 16:37:00,56.8,43.1,29.91,WNW,297,6.0,10.0,60,0.00,,,0.01,Wunderground v.1.15,2013-09-08 20:37:00,
2013-09-08 16:40:00,56.6,43.3,29.90,North,5,2.0,5.0,61,0.00,,,0.01,Wunderground v.1.15,2013-09-08 20:40:00,
2013-09-08 16:41:00,56.6,43.7,29.91,SSE,167,4.0,11.0,62,0.00,,,0.01,Wunderground v.1.15,2013-09-08 20:41:00,
2013-09-08 16:42:00,56.6,43.3,29.91,NW,323,9.0,11.0,61,0.00,,,0.01,Wunderground v.1.15,2013-09-08 20:42:00,
2013-09-08 16:43:00,56.6,43.3,29.91,North,360,1.0,11.0,61,0.00,,,0.01,Wunderground v.1.15,2013-09-08 20:43:00,
2013-09-08 16:46:00,56.7,44.7,29.91,NW,317,9.0,11.0,64,0.00,,,0.01,Wunderground v.1.15,2013-09-08 20:46:00,
2013-09-08 16:47:00,56.7,43.4,29.91,WNW,290,4.0,14.0,61,0.00,,,0.01,Wunderground v.1.15,2013-09-08 20:47:00,
2013-09-08 16:48:00,56.7,43.0,29.90,North,360,2.0,14.0,60,0.00,,,0.01,Wunderground v.1.15,2013-09-08 20:48:00,
2013-09-08 16:52:00,56.7,43.4,29.91,ENE,78,1.0,11.0,61,0.00,,,0.01,Wunderground v.1.15,2013-09-08 20:52:00,
2013-09-08 16:53:00,56.7,43.8,29.91,NNE,33,5.0,11.0,62,0.00,,,0.01,Wunderground v.1.15,2013-09-08 20:53:00,
2013-09-08 16:57:00,56.5,43.2,29.91,SSE,148,10.0,15.0,61,0.00,,,0.01,Wunderground v.1.15,2013-09-08 20:57:00,
2013-09-08 16:58:00,56.4,42.2,29.91,NNW,331,3.0,15.0,59,0.00,,,0.01,Wunderground v.1.15,2013-09-08 20:58:00,
2013-09-08 16:59:00,56.3,42.1,29.91,SW,227,1.0,15.0,59,0.00,,,0.01,Wunderground v.1.15,2013-09-08 20:59:00,
2013-09-08 17:02:00,56.3,42.1,29.90,South,186,6.0,7.0,59,0.00,,,0.01,Wunderground v.1.15,2013-09-08 21:02:00,
2013-09-08 17:03:00,56.3,43.0,29.91,SSE,164,0.0,7.0,61,0.00,,,0.01,Wunderground v.1.15,2013-09-08 21:03:00,
2013-09-08 17:04:00,56.2,42.1,29.90,NW,304,0.0,7.0,59,0.00,,,0.01,Wunderground v.1.15,2013-09-08 21:04:00,
2013-09-08 17:06:00,56.3,43.4,29.90,NW,310,3.0,7.0,62,0.00,,,0.01,Wunderground v.1.15,2013-09-08 21:06:00,
2013-09-08 17:07:00,56.5,44.0,29.91,NNE,12,0.0,11.0,63,0.00,,,0.01,Wunderground v.1.15,2013-09-08 21:07:00,
2013-09-08 17:08:00,56.6,43.3,29.91,SW,229,0.0,11.0,61,0.00,,,0.01,Wunderground v.1.15,2013-09-08 21:08:00,
2013-09-08 17:09:00,56.6,42.9,29.91,SW,229,0.0,11.0,60,0.00,,,0.01,Wunderground v.1.15,2013-09-08 21:09:00,
2013-09-08 17:11:00,56.3,42.1,29.92,North,360,6.0,17.0,59,0.00,,,0.01,Wunderground v.1.15,2013-09-08 21:11:00,
2013-09-08 17:12:00,56.2,42.1,29.91,North,355,0.0,17.0,59,0.00,,,0.01,Wunderground v.1.15,2013-09-08 21:12:00,
2013-09-08 17:14:00,56.0,42.3,29.91,NNE,29,2.0,17.0,60,0.00,,,0.01,Wunderground v.1.15,2013-09-08 21:14:00,
2013-09-08 17:15:00,55.9,42.6,29.91,WSW,254,5.0,17.0,61,0.00,,,0.01,Wunderground v.1.15,2013-09-08 21:15:00,
2013-09-08 17:17:00,55.9,42.2,29.91,North,355,3.0,17.0,60,0.00,,,0.01,Wunderground v.1.15,2013-09-08 21:17:00,
2013-09-08 17:19:00,55.9,42.2,29.92,NNW,329,11.0,17.0,60,0.00,,,0.01,Wunderground v.1.15,2013-09-08 21:19:00,
2013-09-08 17:20:00,56.0,42.7,29.92,NNW,342,4.0,14.0,61,0.00,,,0.01,Wunderground v.1.15,2013-09-08 21:20:00,
2013-09-08 17:23:00,55.9,42.2,29.92,WNW,290,8.0,14.0,60,0.00,,,0.01,Wunderground v.1.15,2013-09-08 21:23:00,
2013-09-08 17:24:00,55.8,41.7,29.92,WSW,252,0.0,14.0,59,0.00,,,0.01,Wunderground v.1.15,2013-09-08 21:24:00,
2013-09-08 17:25:00,55.8,41.7,29.92,WSW,252,3.0,14.0,59,0.00,,,0.01,Wunderground v.1.15,2013-09-08 21:25:00,
2013-09-08 17:26:00,55.8,42.1,29.92,West,267,3.0,14.0,60,0.00,,,0.01,Wunderground v.1.15,2013-09-08 21:26:00,
2013-09-08 17:28:00,55.8,42.1,29.92,NE,48,3.0,14.0,60,0.00,,,0.01,Wunderground v.1.15,2013-09-08 21:28:00,
2013-09-08 17:29:00,55.9,43.1,29.92,North,5,2.0,14.0,62,0.00,,,0.01,Wunderground v.1.15,2013-09-08 21:29:00,
2013-09-08 17:30:00,56.1,43.3,29.92,WNW,293,4.0,11.0,62,0.00,,,0.01,Wunderground v.1.15,2013-09-08 21:30:00,
2013-09-08 17:31:00,56.1,43.3,29.92,NNE,17,6.0,11.0,62,0.00,,,0.01,Wunderground v.1.15,2013-09-08 21:31:00,
2013-09-08 17:33:00,56.1,42.8,29.92,NNW,327,5.0,13.0,61,0.00,,,0.01,Wunderground v.1.15,2013-09-08 21:33:00,
2013-09-08 17:34:00,56.1,42.4,29.92,North,5,6.0,13.0,60,0.00,,,0.01,Wunderground v.1.15,2013-09-08 21:34:00,
2013-09-08 17:36:00,56.1,42.8,29.93,NNW,336,7.0,13.0,61,0.00,,,0.01,Wunderground v.1.15,2013-09-08 21:36:00,
2013-09-08 17:38:00,56.1,42.0,29.93,SSE,157,1.0,13.0,59,0.00,,,0.01,Wunderground v.1.15,2013-09-08 21:38:00,
2013-09-08 17:39:00,56.0,41.9,29.92,WNW,292,4.0,13.0,59,0.00,,,0.01,Wunderground v.1.15,2013-09-08 21:39:00,
2013-09-08 17:40:00,56.0,41.4,29.92,NW,304,0.0,4.0,58,0.00,,,0.01,Wunderground v.1.15,2013-09-08 21:40:00,
2013-09-08 17:41:00,56.0,43.2,29.92,NNW,338,3.0,6.0,62,0.00,,,0.01,Wunderground v.1.15,2013-09-08 21:41:00,
2013-09-08 17:43:00,56.1,42.8,29.93,NW,325,5.0,9.0,61,0.00,,,0.01,Wunderground v.1.15,2013-09-08 21:43:00,
2013-09-08 17:44:00,56.2,42.5,29.93,NNE,16,0.0,9.0,60,0.00,,,0.01,Wunderground v.1.15,2013-09-08 21:44:00,
2013-09-08 17:45:00,56.2,42.5,29.93,WSW,258,3.0,9.0,60,0.00,,,0.01,Wunderground v.1.15,2013-09-08 21:45:00,
2013-09-08 17:46:00,56.2,43.3,29.93,SSW,211,0.0,9.0,62,0.00,,,0.01,Wunderground v.1.15,2013-09-08 21:46:00,
2013-09-08 17:47:00,56.2,42.9,29.93,WSW,248,3.0,9.0,61,0.00,,,0.01,Wunderground v.1.15,2013-09-08 21:47:00,
2013-09-08 17:48:00,56.0,41.9,29.93,NNE,17,2.0,9.0,59,0.00,,,0.01,Wunderground v.1.15,2013-09-08 21:48:00,
2013-09-08 17:49:00,55.9,41.8,29.93,SSW,204,0.0,9.0,59,0.00,,,0.01,Wunderground v.1.15,2013-09-08 21:49:00,
2013-09-08 17:50:00,55.9,42.2,29.93,West,276,2.0,3.0,60,0.00,,,0.01,Wunderground v.1.15,2013-09-08 21:50:00,
2013-09-08 17:51:00,55.7,42.0,29.93,NNE,12,6.0,17.0,60,0.00,,,0.01,Wunderground v.1.15,2013-09-08 21:51:00,
2013-09-08 17:53:00,55.5,41.4,29.93,NNE,15,3.0,17.0,59,0.00,,,0.01,Wunderground v.1.15,2013-09-08 21:53:00,
2013-09-08 17:54:00,55.4,41.7,29.93,North,5,0.0,17.0,60,0.00,,,0.01,Wunderground v.1.15,2013-09-08 21:54:00,
2013-09-08 17:55:00,55.5,42.3,29.93,NNW,333,5.0,17.0,61,0.00,,,0.01,Wunderground v.1.15,2013-09-08 21:55:00,
2013-09-08 17:56:00,55.5,41.8,29.93,West,275,2.0,17.0,60,0.00,,,0.01,Wunderground v.1.15,2013-09-08 21:56:00,
2013-09-08 17:57:00,55.5,42.3,29.93,South,176,0.0,17.0,61,0.00,,,0.01,Wunderground v.1.15,2013-09-08 21:57:00,
2013-09-08 17:58:00,55.5,42.3,29.93,NNE,24,6.0,17.0,61,0.00,,,0.01,Wunderground v.1.15,2013-09-08 21:58:00,
2013-09-08 18:00:00,55.4,41.3,29.93,WSW,239,0.0,3.0,59,0.00,,,0.01,Wunderground v.1.15,2013-09-08 22:00:00,
2013-09-08 18:01:00,55.4,41.7,29.93,NNE,13,0.0,6.0,60,0.00,,,0.01,Wunderground v.1.15,2013-09-08 22:01:00,
2013-09-08 18:02:00,55.4,42.2,29.93,WSW,239,6.0,6.0,61,0.00,,,0.01,Wunderground v.1.15,2013-09-08 22:02:00,
2013-09-08 18:03:00,55.4,42.2,29.93,NW,317,1.0,6.0,61,0.00,,,0.01,Wunderground v.1.15,2013-09-08 22:03:00,
2013-09-08 18:05:00,55.3,40.8,29.93,NNW,328,1.0,9.0,58,0.00,,,0.01,Wunderground v.1.15,2013-09-08 22:05:00,
2013-09-08 18:06:00,55.3,42.5,29.93,North,9,2.0,9.0,62,0.00,,,0.01,Wunderground v.1.15,2013-09-08 22:06:00,
2013-09-08 18:07:00,55.3,41.2,29.93,NW,304,0.0,9.0,59,0.00,,,0.01,Wunderground v.1.15,2013-09-08 22:07:00,
2013-09-08 18:08:00,55.3,42.1,29.93,West,275,0.0,9.0,61,0.00,,,0.01,Wunderground v.1.15,2013-09-08 22:08:00,
2013-09-08 18:09:00,55.3,42.1,29.93,NE,42,0.0,9.0,61,0.00,,,0.01,Wunderground v.1.15,2013-09-08 22:09:00,
2013-09-08 18:10:00,55.4,43.0,29.93,WNW,286,0.0,2.0,63,0.00,,,0.01,Wunderground v.1.15,2013-09-08 22:10:00,
2013-09-08 18:11:00,55.4,41.7,29.93,NW,321,0.0,3.0,60,0.00,,,0.01,Wunderground v.1.15,2013-09-08 22:11:00,
2013-09-08 18:12:00,55.5,42.3,29.93,West,262,2.0,5.0,61,0.00,,,0.01,Wunderground v.1.15,2013-09-08 22:12:00,
2013-09-08 18:14:00,55.4,41.3,29.93,West,261,0.0,5.0,59,0.00,,,0.01,Wunderground v.1.15,2013-09-08 22:14:00,
2013-09-08 18:15:00,55.4,41.7,29.93,West,270,0.0,5.0,60,0.00,,,0.01,Wunderground v.1.15,2013-09-08 22:15:00,
2013-09-08 18:17:00,55.4,41.7,29.93,West,264,0.0,6.0,60,0.00,,,0.01,Wunderground v.1.15,2013-09-08 22:17:00,
2013-09-08 18:18:00,55.3,42.1,29.93,WSW,253,3.0,8.0,61,0.00,,,0.01,Wunderground v.1.15,2013-09-08 22:18:00,
2013-09-08 18:19:00,55.3,42.1,29.93,SSW,196,0.0,8.0,61,0.00,,,0.01,Wunderground v.1.15,2013-09-08 22:19:00,
2013-09-08 18:20:00,55.2,41.5,29.93,SSE,162,0.0,5.0,60,0.00,,,0.01,Wunderground v.1.15,2013-09-08 22:20:00,
2013-09-08 18:22:00,55.0,41.8,29.93,South,172,2.0,10.0,61,0.00,,,0.01,Wunderground v.1.15,2013-09-08 22:22:00,
2013-09-08 18:24:00,54.9,42.1,29.93,NNW,335,4.0,10.0,62,0.00,,,0.01,Wunderground v.1.15,2013-09-08 22:24:00,
2013-09-08 18:25:00,54.8,42.4,29.93,SW,236,3.0,10.0,63,0.00,,,0.01,Wunderground v.1.15,2013-09-08 22:25:00,
2013-09-08 18:26:00,54.7,41.1,29.93,NNE,14,3.0,10.0,60,0.00,,,0.01,Wunderground v.1.15,2013-09-08 22:26:00,
2013-09-08 18:28:00,54.6,41.8,29.93,NW,317,0.0,10.0,62,0.00,,,0.01,Wunderground v.1.15,2013-09-08 22:28:00,
2013-09-08 18:29:00,54.5,41.7,29.93,West,265,0.0,10.0,62,0.00,,,0.01,Wunderground v.1.15,2013-09-08 22:29:00,
2013-09-08 18:30:00,54.5,41.3,29.94,NNW,332,4.0,4.0,61,0.00,,,0.01,Wunderground v.1.15,2013-09-08 22:30:00,
2013-09-08 18:31:00,54.5,42.2,29.94,NNW,331,2.0,4.0,63,0.00,,,0.01,Wunderground v.1.15,2013-09-08 22:31:00,
2013-09-08 18:33:00,54.4,42.1,29.94,West,271,2.0,8.0,63,0.00,,,0.01,Wunderground v.1.15,2013-09-08 22:33:00,
2013-09-08 18:35:00,54.3,41.6,29.94,SW,236,0.0,8.0,62,0.00,,,0.01,Wunderground v.1.15,2013-09-08 22:35:00,
2013-09-08 18:36:00,54.3,41.6,29.94,NW,312,2.0,8.0,62,0.00,,,0.01,Wunderground v.1.15,2013-09-08 22:36:00,
2013-09-08 18:38:00,54.0,41.3,29.94,WSW,248,0.0,8.0,62,0.00,,,0.01,Wunderground v.1.15,2013-09-08 22:38:00,
2013-09-08 18:39:00,53.9,41.2,29.94,ESE,104,0.0,8.0,62,0.00,,,0.01,Wunderground v.1.15,2013-09-08 22:39:00,
2013-09-08 18:40:00,53.9,41.6,29.94,North,360,7.0,7.0,63,0.00,,,0.01,Wunderground v.1.15,2013-09-08 22:40:00,
2013-09-08 18:41:00,53.7,41.4,29.94,NNE,23,3.0,9.0,63,0.00,,,0.01,Wunderground v.1.15,2013-09-08 22:41:00,
2013-09-08 18:43:00,53.6,41.3,29.94,NNE,30,0.0,9.0,63,0.00,,,0.01,Wunderground v.1.15,2013-09-08 22:43:00,
2013-09-08 18:44:00,53.6,41.7,29.95,NNW,346,0.0,9.0,64,0.00,,,0.01,Wunderground v.1.15,2013-09-08 22:44:00,
2013-09-08 18:45:00,53.6,41.3,29.94,North,360,1.0,9.0,63,0.00,,,0.01,Wunderground v.1.15,2013-09-08 22:45:00,
2013-09-08 18:47:00,53.5,41.6,29.94,NNE,24,3.0,9.0,64,0.00,,,0.01,Wunderground v.1.15,2013-09-08 22:47:00,
2013-09-08 18:48:00,53.4,41.1,29.95,NNE,27,0.0,9.0,63,0.00,,,0.01,Wunderground v.1.15,2013-09-08 22:48:00,
2013-09-08 18:49:00,53.3,41.8,29.95,North,11,4.0,9.0,65,0.00,,,0.01,Wunderground v.1.15,2013-09-08 22:49:00,
2013-09-08 18:50:00,53.2,40.9,29.95,WSW,237,0.0,2.0,63,0.00,,,0.01,Wunderground v.1.15,2013-09-08 22:50:00,
2013-09-08 18:52:00,53.0,41.1,29.95,WSW,249,0.0,5.0,64,0.00,,,0.01,Wunderground v.1.15,2013-09-08 22:52:00,
2013-09-08 18:53:00,53.0,41.1,29.95,North,355,0.0,5.0,64,0.00,,,0.01,Wunderground v.1.15,2013-09-08 22:53:00,
2013-09-08 18:54:00,53.0,41.1,29.95,North,355,0.0,5.0,64,0.00,,,0.01,Wunderground v.1.15,2013-09-08 22:54:00,
2013-09-08 18:55:00,52.9,41.0,29.95,NE,40,0.0,5.0,64,0.00,,,0.01,Wunderground v.1.15,2013-09-08 22:55:00,
2013-09-08 18:57:00,52.6,41.2,29.95,NNW,338,1.0,5.0,65,0.00,,,0.01,Wunderground v.1.15,2013-09-08 22:57:00,
2013-09-08 18:58:00,52.4,41.0,29.95,North,360,0.0,5.0,65,0.00,,,0.01,Wunderground v.1.15,2013-09-08 22:58:00,
2013-09-08 18:59:00,52.3,40.9,29.95,NE,35,1.0,5.0,65,0.00,,,0.01,Wunderground v.1.15,2013-09-08 22:59:00,
2013-09-08 19:00:00,52.3,40.9,29.95,NW,316,3.0,3.0,65,0.00,,,0.01,Wunderground v.1.15,2013-09-08 23:00:00,
2013-09-08 19:01:00,52.1,41.1,29.95,West,259,0.0,4.0,66,0.00,,,0.01,Wunderground v.1.15,2013-09-08 23:01:00,
2013-09-08 19:02:00,51.9,41.3,29.95,ENE,60,1.0,5.0,67,0.00,,,0.01,Wunderground v.1.15,2013-09-08 23:02:00,
2013-09-08 19:05:00,51.6,40.6,29.96,WSW,246,0.0,8.0,66,0.00,,,0.01,Wunderground v.1.15,2013-09-08 23:05:00,
2013-09-08 19:06:00,51.5,40.5,29.96,North,355,0.0,8.0,66,0.00,,,0.01,Wunderground v.1.15,2013-09-08 23:06:00,
2013-09-08 19:08:00,51.3,40.7,29.96,North,355,0.0,8.0,67,0.00,,,0.01,Wunderground v.1.15,2013-09-08 23:08:00,
2013-09-08 19:10:00,51.2,41.0,29.96,NNW,340,6.0,7.0,68,0.00,,,0.01,Wunderground v.1.15,2013-09-08 23:10:00,
2013-09-08 19:11:00,51.1,40.9,29.96,NW,322,0.0,7.0,68,0.00,,,0.01,Wunderground v.1.15,2013-09-08 23:11:00,
2013-09-08 19:13:00,51.0,40.4,29.97,NNE,17,5.0,7.0,67,0.00,,,0.01,Wunderground v.1.15,2013-09-08 23:13:00,
2013-09-08 19:16:00,50.8,41.0,29.97,NNW,347,3.0,7.0,69,0.00,,,0.01,Wunderground v.1.15,2013-09-08 23:16:00,
2013-09-08 19:18:00,50.6,40.4,29.97,North,11,0.0,7.0,68,0.00,,,0.01,Wunderground v.1.15,2013-09-08 23:18:00,
2013-09-08 19:19:00,50.6,40.8,29.97,NW,323,0.0,7.0,69,0.00,,,0.01,Wunderground v.1.15,2013-09-08 23:19:00,
2013-09-08 19:21:00,50.5,40.7,29.97,NNW,327,0.0,2.0,69,0.00,,,0.01,Wunderground v.1.15,2013-09-08 23:21:00,
2013-09-08 19:23:00,50.3,40.9,29.97,NNW,330,0.0,4.0,70,0.00,,,0.01,Wunderground v.1.15,2013-09-08 23:23:00,
2013-09-08 19:24:00,50.2,40.8,29.97,North,360,0.0,4.0,70,0.00,,,0.01,Wunderground v.1.15,2013-09-08 23:24:00,
2013-09-08 19:26:00,50.1,41.1,29.97,North,355,0.0,4.0,71,0.00,,,0.01,Wunderground v.1.15,2013-09-08 23:26:00,
2013-09-08 19:27:00,50.0,41.0,29.97,North,355,0.0,4.0,71,0.00,,,0.01,Wunderground v.1.15,2013-09-08 23:27:00,
2013-09-08 19:28:00,50.0,41.0,29.97,North,350,0.0,4.0,71,0.00,,,0.01,Wunderground v.1.15,2013-09-08 23:28:00,
2013-09-08 19:30:00,49.8,40.8,29.97,NNE,14,0.0,1.0,71,0.00,,,0.01,Wunderground v.1.15,2013-09-08 23:30:00,
2013-09-08 19:31:00,49.7,40.7,29.97,NNE,18,0.0,1.0,71,0.00,,,0.01,Wunderground v.1.15,2013-09-08 23:31:00,
2013-09-08 19:32:00,49.6,40.6,29.97,NNE,18,0.0,1.0,71,0.00,,,0.01,Wunderground v.1.15,2013-09-08 23:32:00,
2013-09-08 19:34:00,49.6,40.9,29.97,NW,326,0.0,3.0,72,0.00,,,0.01,Wunderground v.1.15,2013-09-08 23:34:00,
2013-09-08 19:36:00,49.4,40.4,29.97,NNW,331,0.0,3.0,71,0.00,,,0.01,Wunderground v.1.15,2013-09-08 23:36:00,
2013-09-08 19:38:00,49.4,40.4,29.97,North,5,0.0,4.0,71,0.00,,,0.01,Wunderground v.1.15,2013-09-08 23:38:00,
2013-09-08 19:39:00,49.3,40.7,29.97,North,5,3.0,6.0,72,0.00,,,0.01,Wunderground v.1.15,2013-09-08 23:39:00,
2013-09-08 19:40:00,49.3,40.3,29.98,North,355,0.0,1.0,71,0.00,,,0.01,Wunderground v.1.15,2013-09-08 23:40:00,
2013-09-08 19:41:00,49.3,40.7,29.98,NNE,19,0.0,3.0,72,0.00,,,0.01,Wunderground v.1.15,2013-09-08 23:41:00,
2013-09-08 19:42:00,49.2,40.6,29.98,WSW,253,0.0,3.0,72,0.00,,,0.01,Wunderground v.1.15,2013-09-08 23:42:00,
2013-09-08 19:43:00,49.2,40.6,29.98,WSW,253,0.0,3.0,72,0.00,,,0.01,Wunderground v.1.15,2013-09-08 23:43:00,
2013-09-08 19:45:00,49.2,40.6,29.98,WNW,290,2.0,3.0,72,0.00,,,0.01,Wunderground v.1.15,2013-09-08 23:45:00,
2013-09-08 19:46:00,49.2,40.2,29.98,NNE,19,0.0,3.0,71,0.00,,,0.01,Wunderground v.1.15,2013-09-08 23:46:00,
2013-09-08 19:47:00,49.1,40.1,29.98,NNE,19,0.0,3.0,71,0.00,,,0.01,Wunderground v.1.15,2013-09-08 23:47:00,
2013-09-08 19:48:00,49.1,40.5,29.98,NNE,19,0.0,3.0,72,0.00,,,0.01,Wunderground v.1.15,2013-09-08 23:48:00,
2013-09-08 19:50:00,49.1,40.5,29.98,North,355,0.0,1.0,72,0.00,,,0.01,Wunderground v.1.15,2013-09-08 23:50:00,
2013-09-08 19:51:00,49.1,40.5,29.99,North,355,1.0,3.0,72,0.00,,,0.01,Wunderground v.1.15,2013-09-08 23:51:00,
2013-09-08 19:52:00,49.0,40.4,29.99,NNE,19,0.0,3.0,72,0.00,,,0.01,Wunderground v.1.15,2013-09-08 23:52:00,
2013-09-08 19:54:00,49.0,40.4,29.99,NNE,13,0.0,3.0,72,0.00,,,0.01,Wunderground v.1.15,2013-09-08 23:54:00,
2013-09-08 19:55:00,48.9,40.3,29.99,North,9,0.0,5.0,72,0.00,,,0.01,Wunderground v.1.15,2013-09-08 23:55:00,
2013-09-08 19:56:00,48.9,40.3,29.99,NNW,332,0.0,5.0,72,0.00,,,0.01,Wunderground v.1.15,2013-09-08 23:56:00,
2013-09-08 19:57:00,48.9,40.3,29.99,NNW,332,0.0,5.0,72,0.00,,,0.01,Wunderground v.1.15,2013-09-08 23:57:00,
2013-09-08 19:59:00,48.8,40.5,29.99,NW,322,0.0,5.0,73,0.00,,,0.01,Wunderground v.1.15,2013-09-08 23:59:00,
2013-09-08 20:01:00,48.7,40.1,30.00,NNE,16,1.0,2.0,72,0.00,,,0.01,Wunderground v.1.15,2013-09-09 00:01:00,
2013-09-08 20:02:00,48.7,40.4,30.00,NNE,15,0.0,2.0,73,0.00,,,0.01,Wunderground v.1.15,2013-09-09 00:02:00,
2013-09-08 20:04:00,48.6,40.0,30.00,NNE,26,4.0,4.0,72,0.00,,,0.01,Wunderground v.1.15,2013-09-09 00:04:00,
2013-09-08 20:06:00,48.6,40.3,30.00,NNE,12,0.0,4.0,73,0.00,,,0.01,Wunderground v.1.15,2013-09-09 00:06:00,
2013-09-08 20:07:00,48.5,40.2,30.00,NW,324,2.0,4.0,73,0.00,,,0.01,Wunderground v.1.15,2013-09-09 00:07:00,
2013-09-08 20:09:00,48.4,40.1,30.00,NNE,26,1.0,4.0,73,0.00,,,0.01,Wunderground v.1.15,2013-09-09 00:09:00,
2013-09-08 20:11:00,48.4,40.1,30.00,NW,311,0.0,1.0,73,0.00,,,0.01,Wunderground v.1.15,2013-09-09 00:11:00,
2013-09-08 20:12:00,48.3,40.0,30.00,NE,49,3.0,6.0,73,0.00,,,0.01,Wunderground v.1.15,2013-09-09 00:12:00,
2013-09-08 20:15:00,48.2,39.9,30.01,WSW,248,0.0,6.0,73,0.00,,,0.01,Wunderground v.1.15,2013-09-09 00:15:00,
2013-09-08 20:16:00,48.2,39.9,30.00,North,11,0.0,6.0,73,0.00,,,0.01,Wunderground v.1.15,2013-09-09 00:16:00,
2013-09-08 20:17:00,48.2,39.9,30.01,NW,323,1.0,6.0,73,0.00,,,0.01,Wunderground v.1.15,2013-09-09 00:17:00,
2013-09-08 20:18:00,48.2,39.9,30.01,North,355,4.0,6.0,73,0.00,,,0.01,Wunderground v.1.15,2013-09-09 00:18:00,
2013-09-08 20:21:00,48.2,39.9,30.01,NW,325,1.0,8.0,73,0.00,,,0.01,Wunderground v.1.15,2013-09-09 00:21:00,
2013-09-08 20:22:00,48.2,39.9,30.01,NNE,20,0.0,8.0,73,0.00,,,0.01,Wunderground v.1.15,2013-09-09 00:22:00,
2013-09-08 20:23:00,48.2,39.9,30.01,NNW,346,1.0,8.0,73,0.00,,,0.01,Wunderground v.1.15,2013-09-09 00:23:00,
2013-09-08 20:26:00,48.1,39.9,30.01,North,360,4.0,8.0,73,0.00,,,0.01,Wunderground v.1.15,2013-09-09 00:26:00,
2013-09-08 20:27:00,48.1,39.9,30.01,NE,51,0.0,8.0,73,0.00,,,0.01,Wunderground v.1.15,2013-09-09 00:27:00,
2013-09-08 20:28:00,48.0,39.4,30.01,NE,51,0.0,8.0,72,0.00,,,0.01,Wunderground v.1.15,2013-09-09 00:28:00,
2013-09-08 20:30:00,48.0,39.4,30.01,NNW,329,4.0,8.0,72,0.00,,,0.01,Wunderground v.1.15,2013-09-09 00:30:00,
2013-09-08 20:31:00,47.9,39.3,30.01,NNW,342,1.0,7.0,72,0.00,,,0.01,Wunderground v.1.15,2013-09-09 00:31:00,
2013-09-08 20:32:00,47.9,39.3,30.01,NNW,346,2.0,7.0,72,0.00,,,0.01,Wunderground v.1.15,2013-09-09 00:32:00,
2013-09-08 20:33:00,47.9,39.3,30.01,ENE,69,0.0,7.0,72,0.00,,,0.01,Wunderground v.1.15,2013-09-09 00:33:00,
2013-09-08 20:34:00,47.9,39.3,30.01,East,87,1.0,7.0,72,0.00,,,0.01,Wunderground v.1.15,2013-09-09 00:34:00,
2013-09-08 20:36:00,47.9,39.3,30.01,NNE,32,2.0,9.0,72,0.00,,,0.01,Wunderground v.1.15,2013-09-09 00:36:00,
2013-09-08 20:37:00,47.9,39.3,30.01,NE,51,0.0,9.0,72,0.00,,,0.01,Wunderground v.1.15,2013-09-09 00:37:00,
2013-09-08 20:38:00,47.9,39.3,30.01,NNW,340,2.0,9.0,72,0.00,,,0.01,Wunderground v.1.15,2013-09-09 00:38:00,
2013-09-08 20:39:00,47.9,39.3,30.01,North,350,1.0,9.0,72,0.00,,,0.01,Wunderground v.1.15,2013-09-09 00:39:00,
2013-09-08 20:42:00,47.8,39.2,30.01,NNW,348,0.0,4.0,72,0.00,,,0.01,Wunderground v.1.15,2013-09-09 00:42:00,
2013-09-08 20:43:00,47.8,39.2,30.01,NW,321,1.0,4.0,72,0.00,,,0.01,Wunderground v.1.15,2013-09-09 00:43:00,
2013-09-08 20:44:00,47.8,39.2,30.01,NW,319,1.0,4.0,72,0.00,,,0.01,Wunderground v.1.15,2013-09-09 00:44:00,
2013-09-08 20:48:00,47.8,38.8,30.02,NNE,26,2.0,9.0,71,0.00,,,0.01,Wunderground v.1.15,2013-09-09 00:48:00,
2013-09-08 20:49:00,47.9,38.9,30.02,ENE,62,4.0,9.0,71,0.00,,,0.01,Wunderground v.1.15,2013-09-09 00:49:00,
2013-09-08 20:50:00,47.9,38.9,30.02,NE,44,4.0,4.0,71,0.00,,,0.01,Wunderground v.1.15,2013-09-09 00:50:00,
2013-09-08 20:54:00,47.9,38.6,30.02,ENE,61,5.0,8.0,70,0.00,,,0.01,Wunderground v.1.15,2013-09-09 00:54:00,
2013-09-08 20:55:00,47.9,38.9,30.02,NW,315,5.0,8.0,71,0.00,,,0.01,Wunderground v.1.15,2013-09-09 00:55:00,
2013-09-08 20:59:00,47.9,38.9,30.02,North,10,7.0,8.0,71,0.00,,,0.01,Wunderground v.1.15,2013-09-09 00:59:00,
2013-09-08 21:01:00,47.9,38.9,30.02,NNE,22,5.0,6.0,71,0.00,,,0.01,Wunderground v.1.15,2013-09-09 01:01:00,
2013-09-08 21:04:00,47.9,38.9,30.02,NE,43,0.0,6.0,71,0.00,,,0.01,Wunderground v.1.15,2013-09-09 01:04:00,
2013-09-08 21:05:00,47.8,38.8,30.02,NNW,346,0.0,6.0,71,0.00,,,0.01,Wunderground v.1.15,2013-09-09 01:05:00,
2013-09-08 21:06:00,47.8,38.8,30.02,NNW,346,0.0,6.0,71,0.00,,,0.01,Wunderground v.1.15,2013-09-09 01:06:00,
2013-09-08 21:07:00,47.7,38.8,30.02,NE,49,2.0,6.0,71,0.00,,,0.01,Wunderground v.1.15,2013-09-09 01:07:00,
2013-09-08 21:09:00,47.6,38.7,30.02,NNE,13,2.0,6.0,71,0.00,,,0.01,Wunderground v.1.15,2013-09-09 01:09:00,
2013-09-08 21:10:00,47.6,38.7,30.02,NW,323,1.0,5.0,71,0.00,,,0.01,Wunderground v.1.15,2013-09-09 01:10:00,
2013-09-08 21:11:00,47.6,38.7,30.02,NNW,343,3.0,5.0,71,0.00,,,0.01,Wunderground v.1.15,2013-09-09 01:11:00,
2013-09-08 21:13:00,47.5,38.6,30.03,North,355,0.0,5.0,71,0.00,,,0.01,Wunderground v.1.15,2013-09-09 01:13:00,
2013-09-08 21:14:00,47.5,38.9,30.03,NNW,346,1.0,5.0,72,0.00,,,0.01,Wunderground v.1.15,2013-09-09 01:14:00,
2013-09-08 21:15:00,47.4,38.5,30.03,NNE,29,0.0,5.0,71,0.00,,,0.01,Wunderground v.1.15,2013-09-09 01:15:00,
2013-09-08 21:16:00,47.4,38.8,30.03,North,9,2.0,5.0,72,0.00,,,0.01,Wunderground v.1.15,2013-09-09 01:16:00,
2013-09-08 21:17:00,47.3,38.7,30.03,NNE,12,0.0,5.0,72,0.00,,,0.01,Wunderground v.1.15,2013-09-09 01:17:00,
2013-09-08 21:18:00,47.3,38.7,30.03,NNE,31,1.0,5.0,72,0.00,,,0.01,Wunderground v.1.15,2013-09-09 01:18:00,
2013-09-08 21:19:00,47.3,38.4,30.03,North,5,0.0,5.0,71,0.00,,,0.01,Wunderground v.1.15,2013-09-09 01:19:00,
2013-09-08 21:21:00,47.3,38.4,30.03,WNW,288,0.0,3.0,71,0.00,,,0.01,Wunderground v.1.15,2013-09-09 01:21:00,
2013-09-08 21:22:00,47.3,38.7,30.03,NNE,22,5.0,10.0,72,0.00,,,0.01,Wunderground v.1.15,2013-09-09 01:22:00,
2013-09-08 21:23:00,47.3,38.7,30.03,NNE,22,5.0,10.0,72,0.00,,,0.01,Wunderground v.1.15,2013-09-09 01:23:00,
2013-09-08 21:24:00,47.3,38.7,30.03,NW,315,1.0,10.0,72,0.00,,,0.01,Wunderground v.1.15,2013-09-09 01:24:00,
2013-09-08 21:26:00,47.3,38.4,30.03,NW,317,0.0,10.0,71,0.00,,,0.01,Wunderground v.1.15,2013-09-09 01:26:00,
2013-09-08 21:27:00,47.3,38.7,30.03,SSW,208,0.0,10.0,72,0.00,,,0.01,Wunderground v.1.15,2013-09-09 01:27:00,
2013-09-08 21:28:00,47.3,38.7,30.03,SSW,209,0.0,10.0,72,0.00,,,0.01,Wunderground v.1.15,2013-09-09 01:28:00,
2013-09-08 21:29:00,47.2,38.6,30.03,NNW,338,2.0,10.0,72,0.00,,,0.01,Wunderground v.1.15,2013-09-09 01:29:00,
2013-09-08 21:31:00,47.2,38.6,30.03,NNW,328,0.0,7.0,72,0.00,,,0.01,Wunderground v.1.15,2013-09-09 01:31:00,
2013-09-08 21:33:00,47.2,38.6,30.03,NNW,334,0.0,7.0,72,0.00,,,0.01,Wunderground v.1.15,2013-09-09 01:33:00,
2013-09-08 21:34:00,47.2,38.6,30.03,NNW,329,0.0,7.0,72,0.00,,,0.01,Wunderground v.1.15,2013-09-09 01:34:00,
2013-09-08 21:35:00,47.1,38.9,30.03,WNW,289,4.0,7.0,73,0.00,,,0.01,Wunderground v.1.15,2013-09-09 01:35:00,
2013-09-08 21:36:00,47.1,38.9,30.03,ESE,105,0.0,7.0,73,0.00,,,0.01,Wunderground v.1.15,2013-09-09 01:36:00,
2013-09-08 21:38:00,47.0,38.4,30.03,SSW,213,0.0,7.0,72,0.00,,,0.01,Wunderground v.1.15,2013-09-09 01:38:00,
2013-09-08 21:39:00,47.0,38.8,30.03,SSW,213,0.0,7.0,73,0.00,,,0.01,Wunderground v.1.15,2013-09-09 01:39:00,
2013-09-08 21:40:00,47.0,38.8,30.03,SSW,213,0.0,1.0,73,0.00,,,0.01,Wunderground v.1.15,2013-09-09 01:40:00,
2013-09-08 21:41:00,46.9,39.0,30.03,SSW,213,0.0,1.0,74,0.00,,,0.01,Wunderground v.1.15,2013-09-09 01:41:00,
2013-09-08 21:44:00,46.8,38.9,30.03,NNW,328,0.0,3.0,74,0.00,,,0.01,Wunderground v.1.15,2013-09-09 01:44:00,
2013-09-08 21:45:00,46.8,38.6,30.03,NNW,343,1.0,3.0,73,0.00,,,0.01,Wunderground v.1.15,2013-09-09 01:45:00,
2013-09-08 21:46:00,46.7,38.9,30.03,North,9,3.0,6.0,74,0.00,,,0.01,Wunderground v.1.15,2013-09-09 01:46:00,
2013-09-08 21:47:00,46.7,38.9,30.03,NNW,339,3.0,6.0,74,0.00,,,0.01,Wunderground v.1.15,2013-09-09 01:47:00,
2013-09-08 21:50:00,46.6,38.8,30.03,NW,314,3.0,3.0,74,0.00,,,0.01,Wunderground v.1.15,2013-09-09 01:50:00,
2013-09-08 21:51:00,46.6,38.8,30.04,North,355,0.0,6.0,74,0.00,,,0.01,Wunderground v.1.15,2013-09-09 01:51:00,
2013-09-08 21:52:00,46.5,38.7,30.03,NNW,329,3.0,6.0,74,0.00,,,0.01,Wunderground v.1.15,2013-09-09 01:52:00,
2013-09-08 21:55:00,46.5,38.7,30.03,NW,316,0.0,6.0,74,0.00,,,0.01,Wunderground v.1.15,2013-09-09 01:55:00,
2013-09-08 21:56:00,46.5,38.7,30.03,West,273,0.0,6.0,74,0.00,,,0.01,Wunderground v.1.15,2013-09-09 01:56:00,
2013-09-08 21:57:00,46.5,38.7,30.03,West,273,0.0,6.0,74,0.00,,,0.01,Wunderground v.1.15,2013-09-09 01:57:00,
2013-09-08 21:58:00,46.5,38.7,30.03,NNW,329,0.0,6.0,74,0.00,,,0.01,Wunderground v.1.15,2013-09-09 01:58:00,
2013-09-08 22:01:00,46.4,38.6,30.03,SSW,205,0.0,6.0,74,0.00,,,0.01,Wunderground v.1.15,2013-09-09 02:01:00,
2013-09-08 22:02:00,46.4,38.9,30.03,NNW,338,2.0,6.0,75,0.00,,,0.01,Wunderground v.1.15,2013-09-09 02:02:00,
2013-09-08 22:03:00,46.3,38.8,30.03,ENE,63,0.0,8.0,75,0.00,,,0.01,Wunderground v.1.15,2013-09-09 02:03:00,
2013-09-08 22:06:00,46.3,38.8,30.04,North,355,0.0,8.0,75,0.00,,,0.01,Wunderground v.1.15,2013-09-09 02:06:00,
2013-09-08 22:07:00,46.3,38.8,30.04,North,355,2.0,8.0,75,0.00,,,0.01,Wunderground v.1.15,2013-09-09 02:07:00,
2013-09-08 22:08:00,46.3,38.8,30.04,North,5,0.0,8.0,75,0.00,,,0.01,Wunderground v.1.15,2013-09-09 02:08:00,
2013-09-08 22:11:00,46.2,38.7,30.04,NNW,340,0.0,9.0,75,0.00,,,0.01,Wunderground v.1.15,2013-09-09 02:11:00,
2013-09-08 22:12:00,46.2,38.7,30.04,NNW,337,0.0,9.0,75,0.00,,,0.01,Wunderground v.1.15,2013-09-09 02:12:00,
2013-09-08 22:13:00,46.2,38.7,30.04,NW,320,8.0,9.0,75,0.00,,,0.01,Wunderground v.1.15,2013-09-09 02:13:00,
2013-09-08 22:14:00,46.2,38.7,30.04,NE,42,3.0,9.0,75,0.00,,,0.01,Wunderground v.1.15,2013-09-09 02:14:00,
2013-09-08 22:17:00,46.4,38.6,30.04,NNW,346,2.0,9.0,74,0.00,,,0.01,Wunderground v.1.15,2013-09-09 02:17:00,
2013-09-08 22:19:00,46.4,38.6,30.04,NW,316,0.0,9.0,74,0.00,,,0.01,Wunderground v.1.15,2013-09-09 02:19:00,
2013-09-08 22:20:00,46.4,38.6,30.04,NE,49,3.0,8.0,74,0.00,,,0.01,Wunderground v.1.15,2013-09-09 02:20:00,
2013-09-08 22:22:00,46.5,38.7,30.04,North,355,2.0,12.0,74,0.00,,,0.01,Wunderground v.1.15,2013-09-09 02:22:00,
2013-09-08 22:24:00,46.6,38.8,30.04,NNW,329,3.0,12.0,74,0.00,,,0.01,Wunderground v.1.15,2013-09-09 02:24:00,
2013-09-08 22:25:00,46.7,38.9,30.04,NNE,19,3.0,14.0,74,0.00,,,0.01,Wunderground v.1.15,2013-09-09 02:25:00,
2013-09-08 22:26:00,46.8,38.6,30.04,North,9,6.0,14.0,73,0.00,,,0.01,Wunderground v.1.15,2013-09-09 02:26:00,
2013-09-08 22:27:00,46.9,38.3,30.04,North,350,7.0,14.0,72,0.00,,,0.01,Wunderground v.1.15,2013-09-09 02:27:00,
2013-09-08 22:28:00,47.0,38.4,30.05,NNW,327,4.0,14.0,72,0.00,,,0.01,Wunderground v.1.15,2013-09-09 02:28:00,
2013-09-08 22:29:00,47.1,38.9,30.04,North,355,0.0,14.0,73,0.00,,,0.01,Wunderground v.1.15,2013-09-09 02:29:00,
2013-09-08 22:30:00,47.1,38.9,30.04,NW,313,2.0,5.0,73,0.00,,,0.01,Wunderground v.1.15,2013-09-09 02:30:00,
2013-09-08 22:32:00,47.2,39.0,30.05,SW,218,0.0,12.0,73,0.00,,,0.01,Wunderground v.1.15,2013-09-09 02:32:00,
2013-09-08 22:33:00,47.2,39.0,30.05,North,355,2.0,12.0,73,0.00,,,0.01,Wunderground v.1.15,2013-09-09 02:33:00,
2013-09-08 22:34:00,47.1,38.9,30.04,West,269,1.0,12.0,73,0.00,,,0.01,Wunderground v.1.15,2013-09-09 02:34:00,
2013-09-08 22:35:00,47.1,38.5,30.04,NNW,344,1.0,12.0,72,0.00,,,0.01,Wunderground v.1.15,2013-09-09 02:35:00,
2013-09-08 22:37:00,47.0,38.8,30.05,North,360,4.0,12.0,73,0.00,,,0.01,Wunderground v.1.15,2013-09-09 02:37:00,
2013-09-08 22:38:00,47.0,38.8,30.05,West,275,7.0,12.0,73,0.00,,,0.01,Wunderground v.1.15,2013-09-09 02:38:00,
2013-09-08 22:40:00,47.0,38.8,30.05,WNW,289,1.0,3.0,73,0.00,,,0.01,Wunderground v.1.15,2013-09-09 02:40:00,
2013-09-08 22:43:00,47.0,38.8,30.05,ENE,76,0.0,6.0,73,0.00,,,0.01,Wunderground v.1.15,2013-09-09 02:43:00,
2013-09-08 22:44:00,47.0,39.1,30.05,NE,44,0.0,6.0,74,0.00,,,0.01,Wunderground v.1.15,2013-09-09 02:44:00,
2013-09-08 22:45:00,46.9,39.0,30.05,SW,223,4.0,6.0,74,0.00,,,0.01,Wunderground v.1.15,2013-09-09 02:45:00,
2013-09-08 22:46:00,46.8,38.9,30.05,NNE,21,0.0,6.0,74,0.00,,,0.01,Wunderground v.1.15,2013-09-09 02:46:00,
2013-09-08 22:48:00,46.8,38.9,30.05,West,262,0.0,6.0,74,0.00,,,0.01,Wunderground v.1.15,2013-09-09 02:48:00,
2013-09-08 22:49:00,46.7,38.9,30.05,ENE,62,0.0,6.0,74,0.00,,,0.01,Wunderground v.1.15,2013-09-09 02:49:00,
2013-09-08 22:50:00,46.7,38.9,30.05,NNE,31,5.0,5.0,74,0.00,,,0.01,Wunderground v.1.15,2013-09-09 02:50:00,
2013-09-08 22:51:00,46.6,38.8,30.05,North,5,1.0,5.0,74,0.00,,,0.01,Wunderground v.1.15,2013-09-09 02:51:00,
2013-09-08 22:52:00,46.6,38.8,30.05,North,5,0.0,5.0,74,0.00,,,0.01,Wunderground v.1.15,2013-09-09 02:52:00,
2013-09-08 22:53:00,46.6,38.8,30.05,North,5,0.0,5.0,74,0.00,,,0.01,Wunderground v.1.15,2013-09-09 02:53:00,
2013-09-08 22:54:00,46.5,38.7,30.05,North,5,0.0,5.0,74,0.00,,,0.01,Wunderground v.1.15,2013-09-09 02:54:00,
2013-09-08 22:55:00,46.5,38.7,30.05,North,360,0.0,5.0,74,0.00,,,0.01,Wunderground v.1.15,2013-09-09 02:55:00,
2013-09-08 22:58:00,46.4,38.9,30.06,NNW,336,1.0,5.0,75,0.00,,,0.01,Wunderground v.1.15,2013-09-09 02:58:00,
2013-09-08 22:59:00,46.4,38.9,30.06,NNW,336,0.0,5.0,75,0.00,,,0.01,Wunderground v.1.15,2013-09-09 02:59:00,
2013-09-08 23:00:00,46.3,38.8,30.06,NNW,342,0.0,1.0,75,0.00,,,0.01,Wunderground v.1.15,2013-09-09 03:00:00,
2013-09-08 23:03:00,46.2,39.1,30.06,NNW,342,0.0,1.0,76,0.00,,,0.01,Wunderground v.1.15,2013-09-09 03:03:00,
2013-09-08 23:04:00,46.1,38.6,30.06,NNW,342,0.0,1.0,75,0.00,,,0.01,Wunderground v.1.15,2013-09-09 03:04:00,
2013-09-08 23:05:00,46.1,39.0,30.06,NNW,342,1.0,1.0,76,0.00,,,0.01,Wunderground v.1.15,2013-09-09 03:05:00,
2013-09-08 23:09:00,45.8,39.0,30.06,ENE,63,0.0,1.0,77,0.00,,,0.01,Wunderground v.1.15,2013-09-09 03:09:00,
2013-09-08 23:10:00,45.6,39.1,30.06,ENE,63,0.0,3.0,78,0.00,,,0.01,Wunderground v.1.15,2013-09-09 03:10:00,
2013-09-08 23:11:00,45.6,39.1,30.06,ENE,63,0.0,3.0,78,0.00,,,0.01,Wunderground v.1.15,2013-09-09 03:11:00,
2013-09-08 23:14:00,45.3,38.8,30.06,ENE,63,0.0,3.0,78,0.00,,,0.01,Wunderground v.1.15,2013-09-09 03:14:00,
2013-09-08 23:15:00,45.2,38.7,30.06,ENE,63,0.0,3.0,78,0.00,,,0.01,Wunderground v.1.15,2013-09-09 03:15:00,
2013-09-08 23:16:00,45.2,39.1,30.06,ENE,63,0.0,3.0,79,0.00,,,0.01,Wunderground v.1.15,2013-09-09 03:16:00,
2013-09-08 23:17:00,45.1,39.0,30.06,ENE,63,0.0,3.0,79,0.00,,,0.01,Wunderground v.1.15,2013-09-09 03:17:00,
2013-09-08 23:19:00,45.0,39.2,30.06,ENE,63,0.0,3.0,80,0.00,,,0.01,Wunderground v.1.15,2013-09-09 03:19:00,
2013-09-08 23:20:00,44.9,39.1,30.06,ENE,63,0.0,0.0,80,0.00,,,0.01,Wunderground v.1.15,2013-09-09 03:20:00,
2013-09-08 23:21:00,44.9,39.1,30.06,ENE,63,0.0,0.0,80,0.00,,,0.01,Wunderground v.1.15,2013-09-09 03:21:00,
2013-09-08 23:22:00,44.8,39.0,30.06,ENE,63,0.0,0.0,80,0.00,,,0.01,Wunderground v.1.15,2013-09-09 03:22:00,
2013-09-08 23:24:00,44.7,38.9,30.06,ENE,63,0.0,1.0,80,0.00,,,0.01,Wunderground v.1.15,2013-09-09 03:24:00,
2013-09-08 23:25:00,44.6,39.1,30.06,ENE,63,0.0,1.0,81,0.00,,,0.01,Wunderground v.1.15,2013-09-09 03:25:00,
2013-09-08 23:26:00,44.5,39.0,30.06,ENE,63,0.0,1.0,81,0.00,,,0.01,Wunderground v.1.15,2013-09-09 03:26:00,
2013-09-08 23:27:00,44.3,38.8,30.06,ENE,63,0.0,1.0,81,0.00,,,0.01,Wunderground v.1.15,2013-09-09 03:27:00,
2013-09-08 23:28:00,44.3,38.8,30.06,ENE,63,0.0,1.0,81,0.00,,,0.01,Wunderground v.1.15,2013-09-09 03:28:00,
2013-09-08 23:30:00,44.0,38.9,30.06,ENE,63,0.0,0.0,82,0.00,,,0.01,Wunderground v.1.15,2013-09-09 03:30:00,
2013-09-08 23:31:00,43.9,38.8,30.06,ENE,63,1.0,2.0,82,0.00,,,0.01,Wunderground v.1.15,2013-09-09 03:31:00,
2013-09-08 23:32:00,43.8,38.7,30.06,ENE,63,0.0,2.0,82,0.00,,,0.01,Wunderground v.1.15,2013-09-09 03:32:00,
2013-09-08 23:33:00,43.7,38.9,30.06,ENE,63,0.0,2.0,83,0.00,,,0.01,Wunderground v.1.15,2013-09-09 03:33:00,
2013-09-08 23:35:00,43.5,38.7,30.07,ENE,63,0.0,2.0,83,0.00,,,0.01,Wunderground v.1.15,2013-09-09 03:35:00,
2013-09-08 23:36:00,43.4,38.6,30.07,ENE,63,0.0,2.0,83,0.00,,,0.01,Wunderground v.1.15,2013-09-09 03:36:00,
2013-09-08 23:37:00,43.4,38.9,30.07,ENE,63,2.0,2.0,84,0.00,,,0.01,Wunderground v.1.15,2013-09-09 03:37:00,
2013-09-08 23:38:00,43.3,38.5,30.07,ENE,63,0.0,2.0,83,0.00,,,0.01,Wunderground v.1.15,2013-09-09 03:38:00,
2013-09-08 23:40:00,43.1,38.6,30.07,ENE,63,2.0,2.0,84,0.00,,,0.01,Wunderground v.1.15,2013-09-09 03:40:00,
2013-09-08 23:41:00,43.1,38.6,30.07,ENE,63,1.0,3.0,84,0.00,,,0.01,Wunderground v.1.15,2013-09-09 03:41:00,
2013-09-08 23:42:00,43.0,38.5,30.07,ENE,63,0.0,3.0,84,0.00,,,0.01,Wunderground v.1.15,2013-09-09 03:42:00,
2013-09-08 23:43:00,43.0,38.5,30.07,ENE,63,0.0,3.0,84,0.00,,,0.01,Wunderground v.1.15,2013-09-09 03:43:00,
2013-09-08 23:45:00,42.8,38.6,30.07,ENE,63,1.0,3.0,85,0.00,,,0.01,Wunderground v.1.15,2013-09-09 03:45:00,
2013-09-08 23:46:00,42.8,38.6,30.07,ENE,63,1.0,3.0,85,0.00,,,0.01,Wunderground v.1.15,2013-09-09 03:46:00,
2013-09-08 23:47:00,42.7,38.5,30.07,ENE,63,0.0,3.0,85,0.00,,,0.01,Wunderground v.1.15,2013-09-09 03:47:00,
2013-09-08 23:48:00,42.7,38.5,30.07,ENE,63,0.0,3.0,85,0.00,,,0.01,Wunderground v.1.15,2013-09-09 03:48:00,
2013-09-08 23:49:00,42.7,38.5,30.07,ENE,63,0.0,3.0,85,0.00,,,0.01,Wunderground v.1.15,2013-09-09 03:49:00,
2013-09-08 23:50:00,42.7,38.5,30.07,ENE,63,0.0,1.0,85,0.00,,,0.01,Wunderground v.1.15,2013-09-09 03:50:00,
2013-09-08 23:51:00,42.6,38.4,30.07,ENE,63,0.0,1.0,85,0.00,,,0.01,Wunderground v.1.15,2013-09-09 03:51:00,
2013-09-08 23:53:00,42.6,38.7,30.07,ENE,63,0.0,1.0,86,0.00,,,0.01,Wunderground v.1.15,2013-09-09 03:53:00,
2013-09-08 23:54:00,42.5,38.6,30.07,ENE,63,0.0,1.0,86,0.00,,,0.01,Wunderground v.1.15,2013-09-09 03:54:00,
2013-09-08 23:55:00,42.5,38.6,30.07,ENE,63,0.0,1.0,86,0.00,,,0.01,Wunderground v.1.15,2013-09-09 03:55:00,
2013-09-08 23:56:00,42.5,38.6,30.07,ENE,63,0.0,1.0,86,0.00,,,0.01,Wunderground v.1.15,2013-09-09 03:56:00,
2013-09-08 23:58:00,42.5,38.6,30.08,ENE,63,0.0,1.0,86,0.00,,,0.01,Wunderground v.1.15,2013-09-09 03:58:00,
2013-09-08 23:59:00,42.5,38.6,30.08,ENE,63,0.0,1.0,86,0.00,,,0.01,Wunderground v.1.15,2013-09-09 03:59:00,